<?xml version="1.0" encoding="UTF-8" standalone="no" ?>
<gpx xmlns="http://www.topografix.com/GPX/1/1" xmlns:xsi="http://www.w3.org/2001/XMLSchema-instance" xsi:schemaLocation="http://www.topografix.com/GPX/1/1 http://www.topografix.com/GPX/1/1/gpx.xsd" version="1.1" creator="VisuGPX - https://www.visugpx.com">
  <metadata>
    <name>13983961-Marche Erdre-Cens 14,4 km</name>
    <desc><![CDATA[Reco]]></desc>
  </metadata>
  <trk>
    <name><![CDATA[13983961-Marche Erdre-Cens 14,4 km]]></name>
    <trkseg>
      <trkpt lat="47.26988" lon="-1.5523">
        <ele>29</ele>
        <time>2021-11-27T19:46:31Z</time>
      </trkpt>
      <trkpt lat="47.26984" lon="-1.55237">
        <ele>29</ele>
        <time>2021-11-27T19:46:39Z</time>
      </trkpt>
      <trkpt lat="47.26985" lon="-1.55258">
        <ele>29</ele>
        <time>2021-11-27T19:46:58Z</time>
      </trkpt>
      <trkpt lat="47.26984" lon="-1.55261">
        <ele>29</ele>
        <time>2021-11-27T19:47:01Z</time>
      </trkpt>
      <trkpt lat="47.26978" lon="-1.55264">
        <ele>29</ele>
        <time>2021-11-27T19:47:10Z</time>
      </trkpt>
      <trkpt lat="47.26976" lon="-1.55271">
        <ele>28</ele>
        <time>2021-11-27T19:47:17Z</time>
      </trkpt>
      <trkpt lat="47.26971" lon="-1.55256">
        <ele>29</ele>
        <time>2021-11-27T19:47:32Z</time>
      </trkpt>
      <trkpt lat="47.26971" lon="-1.55244">
        <ele>29</ele>
        <time>2021-11-27T19:47:43Z</time>
      </trkpt>
      <trkpt lat="47.26975" lon="-1.55234">
        <ele>29</ele>
        <time>2021-11-27T19:47:53Z</time>
      </trkpt>
      <trkpt lat="47.26973" lon="-1.5523">
        <ele>29</ele>
        <time>2021-11-27T19:47:58Z</time>
      </trkpt>
      <trkpt lat="47.26952" lon="-1.55234">
        <ele>28</ele>
        <time>2021-11-27T19:48:26Z</time>
      </trkpt>
      <trkpt lat="47.26934" lon="-1.55246">
        <ele>28</ele>
        <time>2021-11-27T19:48:52Z</time>
      </trkpt>
      <trkpt lat="47.26918" lon="-1.55249">
        <ele>27</ele>
        <time>2021-11-27T19:49:14Z</time>
      </trkpt>
      <trkpt lat="47.26889" lon="-1.55262">
        <ele>26</ele>
        <time>2021-11-27T19:49:54Z</time>
      </trkpt>
      <trkpt lat="47.2688" lon="-1.55269">
        <ele>26</ele>
        <time>2021-11-27T19:50:08Z</time>
      </trkpt>
      <trkpt lat="47.26848" lon="-1.5528">
        <ele>26</ele>
        <time>2021-11-27T19:50:52Z</time>
      </trkpt>
      <trkpt lat="47.26827" lon="-1.55291">
        <ele>25</ele>
        <time>2021-11-27T19:51:21Z</time>
      </trkpt>
      <trkpt lat="47.26805" lon="-1.55305">
        <ele>25</ele>
        <time>2021-11-27T19:51:53Z</time>
      </trkpt>
      <trkpt lat="47.26794" lon="-1.55315">
        <ele>24</ele>
        <time>2021-11-27T19:52:11Z</time>
      </trkpt>
      <trkpt lat="47.26786" lon="-1.55327">
        <ele>24</ele>
        <time>2021-11-27T19:52:26Z</time>
      </trkpt>
      <trkpt lat="47.26774" lon="-1.55336">
        <ele>23</ele>
        <time>2021-11-27T19:52:44Z</time>
      </trkpt>
      <trkpt lat="47.2677" lon="-1.55335">
        <ele>23</ele>
        <time>2021-11-27T19:52:49Z</time>
      </trkpt>
      <trkpt lat="47.26759" lon="-1.55325">
        <ele>23</ele>
        <time>2021-11-27T19:53:07Z</time>
      </trkpt>
      <trkpt lat="47.26741" lon="-1.55317">
        <ele>23</ele>
        <time>2021-11-27T19:53:32Z</time>
      </trkpt>
      <trkpt lat="47.2672" lon="-1.55309">
        <ele>23</ele>
        <time>2021-11-27T19:54:01Z</time>
      </trkpt>
      <trkpt lat="47.26704" lon="-1.55308">
        <ele>22</ele>
        <time>2021-11-27T19:54:22Z</time>
      </trkpt>
      <trkpt lat="47.26688" lon="-1.55303">
        <ele>22</ele>
        <time>2021-11-27T19:54:44Z</time>
      </trkpt>
      <trkpt lat="47.26681" lon="-1.55297">
        <ele>22</ele>
        <time>2021-11-27T19:54:55Z</time>
      </trkpt>
      <trkpt lat="47.26663" lon="-1.55288">
        <ele>22</ele>
        <time>2021-11-27T19:55:20Z</time>
      </trkpt>
      <trkpt lat="47.26635" lon="-1.55262">
        <ele>22</ele>
        <time>2021-11-27T19:56:04Z</time>
      </trkpt>
      <trkpt lat="47.26595" lon="-1.5524">
        <ele>22</ele>
        <time>2021-11-27T19:57:01Z</time>
      </trkpt>
      <trkpt lat="47.26587" lon="-1.55238">
        <ele>22</ele>
        <time>2021-11-27T19:57:12Z</time>
      </trkpt>
      <trkpt lat="47.26581" lon="-1.55232">
        <ele>22</ele>
        <time>2021-11-27T19:57:22Z</time>
      </trkpt>
      <trkpt lat="47.26573" lon="-1.55231">
        <ele>21</ele>
        <time>2021-11-27T19:57:32Z</time>
      </trkpt>
      <trkpt lat="47.26563" lon="-1.55248">
        <ele>22</ele>
        <time>2021-11-27T19:57:53Z</time>
      </trkpt>
      <trkpt lat="47.26553" lon="-1.55279">
        <ele>22</ele>
        <time>2021-11-27T19:58:24Z</time>
      </trkpt>
      <trkpt lat="47.26545" lon="-1.55288">
        <ele>22</ele>
        <time>2021-11-27T19:58:37Z</time>
      </trkpt>
      <trkpt lat="47.2652" lon="-1.55333">
        <ele>21</ele>
        <time>2021-11-27T19:59:30Z</time>
      </trkpt>
      <trkpt lat="47.26516" lon="-1.55333">
        <ele>21</ele>
        <time>2021-11-27T19:59:35Z</time>
      </trkpt>
      <trkpt lat="47.26452" lon="-1.55275">
        <ele>20</ele>
        <time>2021-11-27T20:01:15Z</time>
      </trkpt>
      <trkpt lat="47.26436" lon="-1.55266">
        <ele>20</ele>
        <time>2021-11-27T20:01:38Z</time>
      </trkpt>
      <trkpt lat="47.26418" lon="-1.55245">
        <ele>20</ele>
        <time>2021-11-27T20:02:09Z</time>
      </trkpt>
      <trkpt lat="47.26403" lon="-1.55233">
        <ele>20</ele>
        <time>2021-11-27T20:02:32Z</time>
      </trkpt>
      <trkpt lat="47.26354" lon="-1.552">
        <ele>19</ele>
        <time>2021-11-27T20:03:44Z</time>
      </trkpt>
      <trkpt lat="47.26339" lon="-1.55195">
        <ele>18</ele>
        <time>2021-11-27T20:04:04Z</time>
      </trkpt>
      <trkpt lat="47.26333" lon="-1.55197">
        <ele>18</ele>
        <time>2021-11-27T20:04:12Z</time>
      </trkpt>
      <trkpt lat="47.26313" lon="-1.5522">
        <ele>17</ele>
        <time>2021-11-27T20:04:46Z</time>
      </trkpt>
      <trkpt lat="47.26304" lon="-1.55224">
        <ele>16</ele>
        <time>2021-11-27T20:04:59Z</time>
      </trkpt>
      <trkpt lat="47.26291" lon="-1.55235">
        <ele>16</ele>
        <time>2021-11-27T20:05:19Z</time>
      </trkpt>
      <trkpt lat="47.26266" lon="-1.55268">
        <ele>14</ele>
        <time>2021-11-27T20:06:04Z</time>
      </trkpt>
      <trkpt lat="47.26256" lon="-1.55286">
        <ele>13</ele>
        <time>2021-11-27T20:06:25Z</time>
      </trkpt>
      <trkpt lat="47.26247" lon="-1.55295">
        <ele>13</ele>
        <time>2021-11-27T20:06:39Z</time>
      </trkpt>
      <trkpt lat="47.2623" lon="-1.55325">
        <ele>12</ele>
        <time>2021-11-27T20:07:15Z</time>
      </trkpt>
      <trkpt lat="47.26208" lon="-1.5535">
        <ele>11</ele>
        <time>2021-11-27T20:07:52Z</time>
      </trkpt>
      <trkpt lat="47.2619" lon="-1.5535">
        <ele>10</ele>
        <time>2021-11-27T20:08:16Z</time>
      </trkpt>
      <trkpt lat="47.26161" lon="-1.55341">
        <ele>10</ele>
        <time>2021-11-27T20:08:55Z</time>
      </trkpt>
      <trkpt lat="47.26147" lon="-1.5533">
        <ele>10</ele>
        <time>2021-11-27T20:09:16Z</time>
      </trkpt>
      <trkpt lat="47.26135" lon="-1.55326">
        <ele>9</ele>
        <time>2021-11-27T20:09:33Z</time>
      </trkpt>
      <trkpt lat="47.26114" lon="-1.55312">
        <ele>9</ele>
        <time>2021-11-27T20:10:04Z</time>
      </trkpt>
      <trkpt lat="47.2611" lon="-1.55306">
        <ele>9</ele>
        <time>2021-11-27T20:10:11Z</time>
      </trkpt>
      <trkpt lat="47.26103" lon="-1.55307">
        <ele>9</ele>
        <time>2021-11-27T20:10:21Z</time>
      </trkpt>
      <trkpt lat="47.26079" lon="-1.55358">
        <ele>8</ele>
        <time>2021-11-27T20:11:17Z</time>
      </trkpt>
      <trkpt lat="47.26074" lon="-1.55364">
        <ele>7</ele>
        <time>2021-11-27T20:11:25Z</time>
      </trkpt>
      <trkpt lat="47.26057" lon="-1.55406">
        <ele>7</ele>
        <time>2021-11-27T20:12:10Z</time>
      </trkpt>
      <trkpt lat="47.2604" lon="-1.55475">
        <ele>6</ele>
        <time>2021-11-27T20:13:16Z</time>
      </trkpt>
      <trkpt lat="47.2603" lon="-1.555">
        <ele>6</ele>
        <time>2021-11-27T20:13:42Z</time>
      </trkpt>
      <trkpt lat="47.26025" lon="-1.5552">
        <ele>6</ele>
        <time>2021-11-27T20:14:02Z</time>
      </trkpt>
      <trkpt lat="47.2602" lon="-1.55529">
        <ele>7</ele>
        <time>2021-11-27T20:14:12Z</time>
      </trkpt>
      <trkpt lat="47.26015" lon="-1.55553">
        <ele>7</ele>
        <time>2021-11-27T20:14:35Z</time>
      </trkpt>
      <trkpt lat="47.26009" lon="-1.55565">
        <ele>7</ele>
        <time>2021-11-27T20:14:48Z</time>
      </trkpt>
      <trkpt lat="47.26004" lon="-1.55584">
        <ele>8</ele>
        <time>2021-11-27T20:15:07Z</time>
      </trkpt>
      <trkpt lat="47.26002" lon="-1.5561">
        <ele>9</ele>
        <time>2021-11-27T20:15:31Z</time>
      </trkpt>
      <trkpt lat="47.25986" lon="-1.55616">
        <ele>9</ele>
        <time>2021-11-27T20:15:53Z</time>
      </trkpt>
      <trkpt lat="47.2598" lon="-1.55622">
        <ele>9</ele>
        <time>2021-11-27T20:16:02Z</time>
      </trkpt>
      <trkpt lat="47.25966" lon="-1.55625">
        <ele>8</ele>
        <time>2021-11-27T20:16:21Z</time>
      </trkpt>
      <trkpt lat="47.25963" lon="-1.55628">
        <ele>8</ele>
        <time>2021-11-27T20:16:26Z</time>
      </trkpt>
      <trkpt lat="47.25961" lon="-1.55639">
        <ele>9</ele>
        <time>2021-11-27T20:16:36Z</time>
      </trkpt>
      <trkpt lat="47.25955" lon="-1.55647">
        <ele>9</ele>
        <time>2021-11-27T20:16:47Z</time>
      </trkpt>
      <trkpt lat="47.25951" lon="-1.55658">
        <ele>9</ele>
        <time>2021-11-27T20:16:58Z</time>
      </trkpt>
      <trkpt lat="47.25948" lon="-1.55675">
        <ele>9</ele>
        <time>2021-11-27T20:17:14Z</time>
      </trkpt>
      <trkpt lat="47.2594" lon="-1.55684">
        <ele>9</ele>
        <time>2021-11-27T20:17:28Z</time>
      </trkpt>
      <trkpt lat="47.25941" lon="-1.55694">
        <ele>10</ele>
        <time>2021-11-27T20:17:37Z</time>
      </trkpt>
      <trkpt lat="47.25938" lon="-1.55708">
        <ele>10</ele>
        <time>2021-11-27T20:17:50Z</time>
      </trkpt>
      <trkpt lat="47.25939" lon="-1.55713">
        <ele>10</ele>
        <time>2021-11-27T20:17:55Z</time>
      </trkpt>
      <trkpt lat="47.25945" lon="-1.55716">
        <ele>10</ele>
        <time>2021-11-27T20:18:03Z</time>
      </trkpt>
      <trkpt lat="47.25952" lon="-1.55728">
        <ele>10</ele>
        <time>2021-11-27T20:18:18Z</time>
      </trkpt>
      <trkpt lat="47.25955" lon="-1.55737">
        <ele>11</ele>
        <time>2021-11-27T20:18:27Z</time>
      </trkpt>
      <trkpt lat="47.25951" lon="-1.55747">
        <ele>11</ele>
        <time>2021-11-27T20:18:37Z</time>
      </trkpt>
      <trkpt lat="47.25949" lon="-1.55746">
        <ele>10</ele>
        <time>2021-11-27T20:18:40Z</time>
      </trkpt>
      <trkpt lat="47.25945" lon="-1.55753">
        <ele>10</ele>
        <time>2021-11-27T20:18:48Z</time>
      </trkpt>
      <trkpt lat="47.25935" lon="-1.55758">
        <ele>10</ele>
        <time>2021-11-27T20:19:03Z</time>
      </trkpt>
      <trkpt lat="47.25928" lon="-1.55757">
        <ele>10</ele>
        <time>2021-11-27T20:19:12Z</time>
      </trkpt>
      <trkpt lat="47.25909" lon="-1.55748">
        <ele>9</ele>
        <time>2021-11-27T20:19:39Z</time>
      </trkpt>
      <trkpt lat="47.2589" lon="-1.5575">
        <ele>9</ele>
        <time>2021-11-27T20:20:04Z</time>
      </trkpt>
      <trkpt lat="47.2588" lon="-1.55768">
        <ele>10</ele>
        <time>2021-11-27T20:20:25Z</time>
      </trkpt>
      <trkpt lat="47.25873" lon="-1.55789">
        <ele>10</ele>
        <time>2021-11-27T20:20:46Z</time>
      </trkpt>
      <trkpt lat="47.25859" lon="-1.55808">
        <ele>10</ele>
        <time>2021-11-27T20:21:12Z</time>
      </trkpt>
      <trkpt lat="47.25846" lon="-1.55821">
        <ele>10</ele>
        <time>2021-11-27T20:21:33Z</time>
      </trkpt>
      <trkpt lat="47.25837" lon="-1.55845">
        <ele>11</ele>
        <time>2021-11-27T20:21:57Z</time>
      </trkpt>
      <trkpt lat="47.25832" lon="-1.5587">
        <ele>12</ele>
        <time>2021-11-27T20:22:21Z</time>
      </trkpt>
      <trkpt lat="47.25814" lon="-1.55897">
        <ele>15</ele>
        <time>2021-11-27T20:22:55Z</time>
      </trkpt>
      <trkpt lat="47.25806" lon="-1.55915">
        <ele>16</ele>
        <time>2021-11-27T20:23:15Z</time>
      </trkpt>
      <trkpt lat="47.25798" lon="-1.5592">
        <ele>16</ele>
        <time>2021-11-27T20:23:26Z</time>
      </trkpt>
      <trkpt lat="47.2579" lon="-1.55934">
        <ele>17</ele>
        <time>2021-11-27T20:23:43Z</time>
      </trkpt>
      <trkpt lat="47.25786" lon="-1.55935">
        <ele>17</ele>
        <time>2021-11-27T20:23:48Z</time>
      </trkpt>
      <trkpt lat="47.25778" lon="-1.5593">
        <ele>17</ele>
        <time>2021-11-27T20:24:00Z</time>
      </trkpt>
      <trkpt lat="47.25772" lon="-1.55936">
        <ele>17</ele>
        <time>2021-11-27T20:24:10Z</time>
      </trkpt>
      <trkpt lat="47.25768" lon="-1.55957">
        <ele>17</ele>
        <time>2021-11-27T20:24:29Z</time>
      </trkpt>
      <trkpt lat="47.25762" lon="-1.55968">
        <ele>16</ele>
        <time>2021-11-27T20:24:42Z</time>
      </trkpt>
      <trkpt lat="47.25758" lon="-1.55983">
        <ele>16</ele>
        <time>2021-11-27T20:24:57Z</time>
      </trkpt>
      <trkpt lat="47.25755" lon="-1.56001">
        <ele>15</ele>
        <time>2021-11-27T20:25:14Z</time>
      </trkpt>
      <trkpt lat="47.25755" lon="-1.56022">
        <ele>15</ele>
        <time>2021-11-27T20:25:33Z</time>
      </trkpt>
      <trkpt lat="47.2575" lon="-1.56037">
        <ele>15</ele>
        <time>2021-11-27T20:25:48Z</time>
      </trkpt>
      <trkpt lat="47.25744" lon="-1.56046">
        <ele>15</ele>
        <time>2021-11-27T20:25:59Z</time>
      </trkpt>
      <trkpt lat="47.25724" lon="-1.56064">
        <ele>16</ele>
        <time>2021-11-27T20:26:30Z</time>
      </trkpt>
      <trkpt lat="47.25717" lon="-1.5608">
        <ele>16</ele>
        <time>2021-11-27T20:26:48Z</time>
      </trkpt>
      <trkpt lat="47.25713" lon="-1.561">
        <ele>16</ele>
        <time>2021-11-27T20:27:07Z</time>
      </trkpt>
      <trkpt lat="47.25706" lon="-1.56112">
        <ele>15</ele>
        <time>2021-11-27T20:27:21Z</time>
      </trkpt>
      <trkpt lat="47.25705" lon="-1.56118">
        <ele>15</ele>
        <time>2021-11-27T20:27:27Z</time>
      </trkpt>
      <trkpt lat="47.25708" lon="-1.56136">
        <ele>14</ele>
        <time>2021-11-27T20:27:43Z</time>
      </trkpt>
      <trkpt lat="47.25706" lon="-1.56147">
        <ele>14</ele>
        <time>2021-11-27T20:27:54Z</time>
      </trkpt>
      <trkpt lat="47.25687" lon="-1.56172">
        <ele>14</ele>
        <time>2021-11-27T20:28:28Z</time>
      </trkpt>
      <trkpt lat="47.25682" lon="-1.56188">
        <ele>14</ele>
        <time>2021-11-27T20:28:44Z</time>
      </trkpt>
      <trkpt lat="47.25674" lon="-1.56203">
        <ele>14</ele>
        <time>2021-11-27T20:29:01Z</time>
      </trkpt>
      <trkpt lat="47.25653" lon="-1.56296">
        <ele>15</ele>
        <time>2021-11-27T20:30:30Z</time>
      </trkpt>
      <trkpt lat="47.25635" lon="-1.56333">
        <ele>17</ele>
        <time>2021-11-27T20:31:11Z</time>
      </trkpt>
      <trkpt lat="47.25624" lon="-1.56378">
        <ele>19</ele>
        <time>2021-11-27T20:31:54Z</time>
      </trkpt>
      <trkpt lat="47.25611" lon="-1.56401">
        <ele>20</ele>
        <time>2021-11-27T20:32:21Z</time>
      </trkpt>
      <trkpt lat="47.25607" lon="-1.56416">
        <ele>20</ele>
        <time>2021-11-27T20:32:36Z</time>
      </trkpt>
      <trkpt lat="47.25587" lon="-1.56456">
        <ele>20</ele>
        <time>2021-11-27T20:33:21Z</time>
      </trkpt>
      <trkpt lat="47.25589" lon="-1.5648">
        <ele>19</ele>
        <time>2021-11-27T20:33:43Z</time>
      </trkpt>
      <trkpt lat="47.25581" lon="-1.56494">
        <ele>19</ele>
        <time>2021-11-27T20:33:59Z</time>
      </trkpt>
      <trkpt lat="47.25559" lon="-1.56483">
        <ele>21</ele>
        <time>2021-11-27T20:34:30Z</time>
      </trkpt>
      <trkpt lat="47.2555" lon="-1.56471">
        <ele>22</ele>
        <time>2021-11-27T20:34:47Z</time>
      </trkpt>
      <trkpt lat="47.2554" lon="-1.56441">
        <ele>22</ele>
        <time>2021-11-27T20:35:17Z</time>
      </trkpt>
      <trkpt lat="47.25537" lon="-1.56415">
        <ele>23</ele>
        <time>2021-11-27T20:35:41Z</time>
      </trkpt>
      <trkpt lat="47.25526" lon="-1.56401">
        <ele>23</ele>
        <time>2021-11-27T20:36:00Z</time>
      </trkpt>
      <trkpt lat="47.25512" lon="-1.56359">
        <ele>24</ele>
        <time>2021-11-27T20:36:42Z</time>
      </trkpt>
      <trkpt lat="47.25506" lon="-1.56357">
        <ele>25</ele>
        <time>2021-11-27T20:36:51Z</time>
      </trkpt>
      <trkpt lat="47.25456" lon="-1.56396">
        <ele>26</ele>
        <time>2021-11-27T20:38:06Z</time>
      </trkpt>
      <trkpt lat="47.25414" lon="-1.5642">
        <ele>26</ele>
        <time>2021-11-27T20:39:06Z</time>
      </trkpt>
      <trkpt lat="47.25406" lon="-1.56398">
        <ele>26</ele>
        <time>2021-11-27T20:39:29Z</time>
      </trkpt>
      <trkpt lat="47.25401" lon="-1.56396">
        <ele>26</ele>
        <time>2021-11-27T20:39:36Z</time>
      </trkpt>
      <trkpt lat="47.25394" lon="-1.56399">
        <ele>26</ele>
        <time>2021-11-27T20:39:46Z</time>
      </trkpt>
      <trkpt lat="47.25386" lon="-1.56399">
        <ele>26</ele>
        <time>2021-11-27T20:39:56Z</time>
      </trkpt>
      <trkpt lat="47.25374" lon="-1.56412">
        <ele>27</ele>
        <time>2021-11-27T20:40:16Z</time>
      </trkpt>
      <trkpt lat="47.25343" lon="-1.564">
        <ele>27</ele>
        <time>2021-11-27T20:40:59Z</time>
      </trkpt>
      <trkpt lat="47.25331" lon="-1.56399">
        <ele>27</ele>
        <time>2021-11-27T20:41:15Z</time>
      </trkpt>
      <trkpt lat="47.25311" lon="-1.56393">
        <ele>27</ele>
        <time>2021-11-27T20:41:42Z</time>
      </trkpt>
      <trkpt lat="47.25293" lon="-1.56383">
        <ele>27</ele>
        <time>2021-11-27T20:42:08Z</time>
      </trkpt>
      <trkpt lat="47.25267" lon="-1.56379">
        <ele>26</ele>
        <time>2021-11-27T20:42:43Z</time>
      </trkpt>
      <trkpt lat="47.25252" lon="-1.56373">
        <ele>26</ele>
        <time>2021-11-27T20:43:03Z</time>
      </trkpt>
      <trkpt lat="47.25221" lon="-1.56381">
        <ele>26</ele>
        <time>2021-11-27T20:43:45Z</time>
      </trkpt>
      <trkpt lat="47.25215" lon="-1.56384">
        <ele>27</ele>
        <time>2021-11-27T20:43:54Z</time>
      </trkpt>
      <trkpt lat="47.25209" lon="-1.56396">
        <ele>27</ele>
        <time>2021-11-27T20:44:07Z</time>
      </trkpt>
      <trkpt lat="47.25201" lon="-1.56405">
        <ele>27</ele>
        <time>2021-11-27T20:44:21Z</time>
      </trkpt>
      <trkpt lat="47.25179" lon="-1.56412">
        <ele>27</ele>
        <time>2021-11-27T20:44:51Z</time>
      </trkpt>
      <trkpt lat="47.25175" lon="-1.56429">
        <ele>27</ele>
        <time>2021-11-27T20:45:07Z</time>
      </trkpt>
      <trkpt lat="47.25174" lon="-1.56457">
        <ele>29</ele>
        <time>2021-11-27T20:45:33Z</time>
      </trkpt>
      <trkpt lat="47.25168" lon="-1.56503">
        <ele>31</ele>
        <time>2021-11-27T20:46:15Z</time>
      </trkpt>
      <trkpt lat="47.25165" lon="-1.5651">
        <ele>31</ele>
        <time>2021-11-27T20:46:23Z</time>
      </trkpt>
      <trkpt lat="47.25162" lon="-1.56509">
        <ele>31</ele>
        <time>2021-11-27T20:46:27Z</time>
      </trkpt>
      <trkpt lat="47.25124" lon="-1.56485">
        <ele>32</ele>
        <time>2021-11-27T20:47:22Z</time>
      </trkpt>
      <trkpt lat="47.25096" lon="-1.56458">
        <ele>32</ele>
        <time>2021-11-27T20:48:06Z</time>
      </trkpt>
      <trkpt lat="47.25087" lon="-1.56455">
        <ele>32</ele>
        <time>2021-11-27T20:48:19Z</time>
      </trkpt>
      <trkpt lat="47.25061" lon="-1.56437">
        <ele>30</ele>
        <time>2021-11-27T20:48:57Z</time>
      </trkpt>
      <trkpt lat="47.25046" lon="-1.56422">
        <ele>28</ele>
        <time>2021-11-27T20:49:21Z</time>
      </trkpt>
      <trkpt lat="47.25021" lon="-1.56404">
        <ele>26</ele>
        <time>2021-11-27T20:49:58Z</time>
      </trkpt>
      <trkpt lat="47.25003" lon="-1.56387">
        <ele>25</ele>
        <time>2021-11-27T20:50:27Z</time>
      </trkpt>
      <trkpt lat="47.2499" lon="-1.5638">
        <ele>24</ele>
        <time>2021-11-27T20:50:45Z</time>
      </trkpt>
      <trkpt lat="47.24961" lon="-1.5637">
        <ele>22</ele>
        <time>2021-11-27T20:51:25Z</time>
      </trkpt>
      <trkpt lat="47.24935" lon="-1.56353">
        <ele>21</ele>
        <time>2021-11-27T20:52:03Z</time>
      </trkpt>
      <trkpt lat="47.24929" lon="-1.56356">
        <ele>21</ele>
        <time>2021-11-27T20:52:12Z</time>
      </trkpt>
      <trkpt lat="47.24922" lon="-1.56356">
        <ele>20</ele>
        <time>2021-11-27T20:52:21Z</time>
      </trkpt>
      <trkpt lat="47.24908" lon="-1.56351">
        <ele>20</ele>
        <time>2021-11-27T20:52:40Z</time>
      </trkpt>
      <trkpt lat="47.24791" lon="-1.56274">
        <ele>21</ele>
        <time>2021-11-27T20:55:31Z</time>
      </trkpt>
      <trkpt lat="47.24753" lon="-1.56246">
        <ele>21</ele>
        <time>2021-11-27T20:56:28Z</time>
      </trkpt>
      <trkpt lat="47.24729" lon="-1.56235">
        <ele>21</ele>
        <time>2021-11-27T20:57:01Z</time>
      </trkpt>
      <trkpt lat="47.24703" lon="-1.56218">
        <ele>21</ele>
        <time>2021-11-27T20:57:39Z</time>
      </trkpt>
      <trkpt lat="47.24641" lon="-1.56173">
        <ele>22</ele>
        <time>2021-11-27T20:59:12Z</time>
      </trkpt>
      <trkpt lat="47.24604" lon="-1.56124">
        <ele>23</ele>
        <time>2021-11-27T21:00:18Z</time>
      </trkpt>
      <trkpt lat="47.24593" lon="-1.56115">
        <ele>23</ele>
        <time>2021-11-27T21:00:35Z</time>
      </trkpt>
      <trkpt lat="47.2458" lon="-1.5611">
        <ele>24</ele>
        <time>2021-11-27T21:00:53Z</time>
      </trkpt>
      <trkpt lat="47.24573" lon="-1.56102">
        <ele>24</ele>
        <time>2021-11-27T21:01:05Z</time>
      </trkpt>
      <trkpt lat="47.24569" lon="-1.56106">
        <ele>24</ele>
        <time>2021-11-27T21:01:11Z</time>
      </trkpt>
      <trkpt lat="47.24546" lon="-1.56117">
        <ele>24</ele>
        <time>2021-11-27T21:01:43Z</time>
      </trkpt>
      <trkpt lat="47.24513" lon="-1.56124">
        <ele>25</ele>
        <time>2021-11-27T21:02:28Z</time>
      </trkpt>
      <trkpt lat="47.24496" lon="-1.56117">
        <ele>25</ele>
        <time>2021-11-27T21:02:51Z</time>
      </trkpt>
      <trkpt lat="47.24477" lon="-1.56124">
        <ele>23</ele>
        <time>2021-11-27T21:03:17Z</time>
      </trkpt>
      <trkpt lat="47.2447" lon="-1.56139">
        <ele>22</ele>
        <time>2021-11-27T21:03:34Z</time>
      </trkpt>
      <trkpt lat="47.24484" lon="-1.56163">
        <ele>22</ele>
        <time>2021-11-27T21:04:03Z</time>
      </trkpt>
      <trkpt lat="47.24495" lon="-1.56201">
        <ele>24</ele>
        <time>2021-11-27T21:04:40Z</time>
      </trkpt>
      <trkpt lat="47.24503" lon="-1.56264">
        <ele>25</ele>
        <time>2021-11-27T21:05:38Z</time>
      </trkpt>
      <trkpt lat="47.24494" lon="-1.56291">
        <ele>24</ele>
        <time>2021-11-27T21:06:05Z</time>
      </trkpt>
      <trkpt lat="47.24481" lon="-1.56348">
        <ele>23</ele>
        <time>2021-11-27T21:07:00Z</time>
      </trkpt>
      <trkpt lat="47.24481" lon="-1.56357">
        <ele>23</ele>
        <time>2021-11-27T21:07:08Z</time>
      </trkpt>
      <trkpt lat="47.2447" lon="-1.56383">
        <ele>22</ele>
        <time>2021-11-27T21:07:36Z</time>
      </trkpt>
      <trkpt lat="47.2446" lon="-1.56434">
        <ele>21</ele>
        <time>2021-11-27T21:08:24Z</time>
      </trkpt>
      <trkpt lat="47.24454" lon="-1.56446">
        <ele>20</ele>
        <time>2021-11-27T21:08:37Z</time>
      </trkpt>
      <trkpt lat="47.24456" lon="-1.56483">
        <ele>19</ele>
        <time>2021-11-27T21:09:11Z</time>
      </trkpt>
      <trkpt lat="47.24466" lon="-1.56508">
        <ele>19</ele>
        <time>2021-11-27T21:09:37Z</time>
      </trkpt>
      <trkpt lat="47.24445" lon="-1.56491">
        <ele>18</ele>
        <time>2021-11-27T21:10:09Z</time>
      </trkpt>
      <trkpt lat="47.2443" lon="-1.56487">
        <ele>17</ele>
        <time>2021-11-27T21:10:30Z</time>
      </trkpt>
      <trkpt lat="47.24417" lon="-1.56487">
        <ele>16</ele>
        <time>2021-11-27T21:10:47Z</time>
      </trkpt>
      <trkpt lat="47.24409" lon="-1.5649">
        <ele>17</ele>
        <time>2021-11-27T21:10:58Z</time>
      </trkpt>
      <trkpt lat="47.24398" lon="-1.56504">
        <ele>18</ele>
        <time>2021-11-27T21:11:17Z</time>
      </trkpt>
      <trkpt lat="47.24387" lon="-1.56548">
        <ele>19</ele>
        <time>2021-11-27T21:12:00Z</time>
      </trkpt>
      <trkpt lat="47.24381" lon="-1.56562">
        <ele>19</ele>
        <time>2021-11-27T21:12:15Z</time>
      </trkpt>
      <trkpt lat="47.24384" lon="-1.56584">
        <ele>19</ele>
        <time>2021-11-27T21:12:35Z</time>
      </trkpt>
      <trkpt lat="47.24384" lon="-1.56622">
        <ele>19</ele>
        <time>2021-11-27T21:13:10Z</time>
      </trkpt>
      <trkpt lat="47.24389" lon="-1.56643">
        <ele>18</ele>
        <time>2021-11-27T21:13:30Z</time>
      </trkpt>
      <trkpt lat="47.2439" lon="-1.56667">
        <ele>18</ele>
        <time>2021-11-27T21:13:51Z</time>
      </trkpt>
      <trkpt lat="47.24395" lon="-1.56694">
        <ele>17</ele>
        <time>2021-11-27T21:14:17Z</time>
      </trkpt>
      <trkpt lat="47.24395" lon="-1.5673">
        <ele>17</ele>
        <time>2021-11-27T21:14:49Z</time>
      </trkpt>
      <trkpt lat="47.24398" lon="-1.5676">
        <ele>17</ele>
        <time>2021-11-27T21:15:17Z</time>
      </trkpt>
      <trkpt lat="47.24393" lon="-1.56784">
        <ele>17</ele>
        <time>2021-11-27T21:15:40Z</time>
      </trkpt>
      <trkpt lat="47.24387" lon="-1.56794">
        <ele>18</ele>
        <time>2021-11-27T21:15:52Z</time>
      </trkpt>
      <trkpt lat="47.24375" lon="-1.56801">
        <ele>19</ele>
        <time>2021-11-27T21:16:09Z</time>
      </trkpt>
      <trkpt lat="47.24366" lon="-1.56813">
        <ele>19</ele>
        <time>2021-11-27T21:16:25Z</time>
      </trkpt>
      <trkpt lat="47.2437" lon="-1.56847">
        <ele>19</ele>
        <time>2021-11-27T21:16:56Z</time>
      </trkpt>
      <trkpt lat="47.24385" lon="-1.56897">
        <ele>16</ele>
        <time>2021-11-27T21:17:46Z</time>
      </trkpt>
      <trkpt lat="47.24402" lon="-1.56932">
        <ele>14</ele>
        <time>2021-11-27T21:18:25Z</time>
      </trkpt>
      <trkpt lat="47.24416" lon="-1.56953">
        <ele>13</ele>
        <time>2021-11-27T21:18:52Z</time>
      </trkpt>
      <trkpt lat="47.24441" lon="-1.56999">
        <ele>15</ele>
        <time>2021-11-27T21:19:45Z</time>
      </trkpt>
      <trkpt lat="47.24469" lon="-1.57041">
        <ele>16</ele>
        <time>2021-11-27T21:20:38Z</time>
      </trkpt>
      <trkpt lat="47.24501" lon="-1.57102">
        <ele>16</ele>
        <time>2021-11-27T21:21:48Z</time>
      </trkpt>
      <trkpt lat="47.24512" lon="-1.57118">
        <ele>17</ele>
        <time>2021-11-27T21:22:09Z</time>
      </trkpt>
      <trkpt lat="47.24529" lon="-1.57126">
        <ele>18</ele>
        <time>2021-11-27T21:22:33Z</time>
      </trkpt>
      <trkpt lat="47.2454" lon="-1.57145">
        <ele>19</ele>
        <time>2021-11-27T21:22:55Z</time>
      </trkpt>
      <trkpt lat="47.24547" lon="-1.57174">
        <ele>20</ele>
        <time>2021-11-27T21:23:23Z</time>
      </trkpt>
      <trkpt lat="47.24538" lon="-1.5722">
        <ele>20</ele>
        <time>2021-11-27T21:24:06Z</time>
      </trkpt>
      <trkpt lat="47.2454" lon="-1.57241">
        <ele>20</ele>
        <time>2021-11-27T21:24:26Z</time>
      </trkpt>
      <trkpt lat="47.24537" lon="-1.57253">
        <ele>20</ele>
        <time>2021-11-27T21:24:37Z</time>
      </trkpt>
      <trkpt lat="47.24538" lon="-1.57317">
        <ele>19</ele>
        <time>2021-11-27T21:25:35Z</time>
      </trkpt>
      <trkpt lat="47.24544" lon="-1.57336">
        <ele>20</ele>
        <time>2021-11-27T21:25:54Z</time>
      </trkpt>
      <trkpt lat="47.24543" lon="-1.57356">
        <ele>19</ele>
        <time>2021-11-27T21:26:12Z</time>
      </trkpt>
      <trkpt lat="47.24552" lon="-1.57388">
        <ele>19</ele>
        <time>2021-11-27T21:26:44Z</time>
      </trkpt>
      <trkpt lat="47.24554" lon="-1.57404">
        <ele>18</ele>
        <time>2021-11-27T21:26:59Z</time>
      </trkpt>
      <trkpt lat="47.24559" lon="-1.57414">
        <ele>18</ele>
        <time>2021-11-27T21:27:10Z</time>
      </trkpt>
      <trkpt lat="47.24559" lon="-1.57424">
        <ele>18</ele>
        <time>2021-11-27T21:27:19Z</time>
      </trkpt>
      <trkpt lat="47.24573" lon="-1.5746">
        <ele>17</ele>
        <time>2021-11-27T21:27:56Z</time>
      </trkpt>
      <trkpt lat="47.24575" lon="-1.57476">
        <ele>17</ele>
        <time>2021-11-27T21:28:11Z</time>
      </trkpt>
      <trkpt lat="47.24582" lon="-1.57493">
        <ele>15</ele>
        <time>2021-11-27T21:28:29Z</time>
      </trkpt>
      <trkpt lat="47.24589" lon="-1.57502">
        <ele>15</ele>
        <time>2021-11-27T21:28:42Z</time>
      </trkpt>
      <trkpt lat="47.24614" lon="-1.5752">
        <ele>16</ele>
        <time>2021-11-27T21:29:19Z</time>
      </trkpt>
      <trkpt lat="47.24634" lon="-1.57542">
        <ele>16</ele>
        <time>2021-11-27T21:29:52Z</time>
      </trkpt>
      <trkpt lat="47.24654" lon="-1.57555">
        <ele>15</ele>
        <time>2021-11-27T21:30:21Z</time>
      </trkpt>
      <trkpt lat="47.24661" lon="-1.57566">
        <ele>14</ele>
        <time>2021-11-27T21:30:35Z</time>
      </trkpt>
      <trkpt lat="47.24672" lon="-1.57606">
        <ele>13</ele>
        <time>2021-11-27T21:31:14Z</time>
      </trkpt>
      <trkpt lat="47.24679" lon="-1.57623">
        <ele>12</ele>
        <time>2021-11-27T21:31:32Z</time>
      </trkpt>
      <trkpt lat="47.2472" lon="-1.577">
        <ele>12</ele>
        <time>2021-11-27T21:33:01Z</time>
      </trkpt>
      <trkpt lat="47.24734" lon="-1.57719">
        <ele>11</ele>
        <time>2021-11-27T21:33:26Z</time>
      </trkpt>
      <trkpt lat="47.24736" lon="-1.57737">
        <ele>11</ele>
        <time>2021-11-27T21:33:43Z</time>
      </trkpt>
      <trkpt lat="47.24744" lon="-1.57736">
        <ele>11</ele>
        <time>2021-11-27T21:33:53Z</time>
      </trkpt>
      <trkpt lat="47.24755" lon="-1.57739">
        <ele>11</ele>
        <time>2021-11-27T21:34:08Z</time>
      </trkpt>
      <trkpt lat="47.24762" lon="-1.57736">
        <ele>11</ele>
        <time>2021-11-27T21:34:18Z</time>
      </trkpt>
      <trkpt lat="47.24768" lon="-1.57761">
        <ele>11</ele>
        <time>2021-11-27T21:34:42Z</time>
      </trkpt>
      <trkpt lat="47.24773" lon="-1.57764">
        <ele>11</ele>
        <time>2021-11-27T21:34:49Z</time>
      </trkpt>
      <trkpt lat="47.24781" lon="-1.57762">
        <ele>11</ele>
        <time>2021-11-27T21:35:00Z</time>
      </trkpt>
      <trkpt lat="47.24788" lon="-1.57767">
        <ele>11</ele>
        <time>2021-11-27T21:35:10Z</time>
      </trkpt>
      <trkpt lat="47.24836" lon="-1.57832">
        <ele>10</ele>
        <time>2021-11-27T21:36:37Z</time>
      </trkpt>
      <trkpt lat="47.24848" lon="-1.57841">
        <ele>10</ele>
        <time>2021-11-27T21:36:55Z</time>
      </trkpt>
      <trkpt lat="47.24852" lon="-1.57852">
        <ele>10</ele>
        <time>2021-11-27T21:37:07Z</time>
      </trkpt>
      <trkpt lat="47.24866" lon="-1.57868">
        <ele>10</ele>
        <time>2021-11-27T21:37:30Z</time>
      </trkpt>
      <trkpt lat="47.24887" lon="-1.57905">
        <ele>10</ele>
        <time>2021-11-27T21:38:14Z</time>
      </trkpt>
      <trkpt lat="47.24903" lon="-1.57925">
        <ele>10</ele>
        <time>2021-11-27T21:38:42Z</time>
      </trkpt>
      <trkpt lat="47.24927" lon="-1.57974">
        <ele>12</ele>
        <time>2021-11-27T21:39:37Z</time>
      </trkpt>
      <trkpt lat="47.24939" lon="-1.58014">
        <ele>13</ele>
        <time>2021-11-27T21:40:16Z</time>
      </trkpt>
      <trkpt lat="47.24949" lon="-1.58027">
        <ele>14</ele>
        <time>2021-11-27T21:40:34Z</time>
      </trkpt>
      <trkpt lat="47.24955" lon="-1.58047">
        <ele>14</ele>
        <time>2021-11-27T21:40:54Z</time>
      </trkpt>
      <trkpt lat="47.24957" lon="-1.58063">
        <ele>14</ele>
        <time>2021-11-27T21:41:09Z</time>
      </trkpt>
      <trkpt lat="47.24963" lon="-1.58079">
        <ele>15</ele>
        <time>2021-11-27T21:41:25Z</time>
      </trkpt>
      <trkpt lat="47.24962" lon="-1.58089">
        <ele>15</ele>
        <time>2021-11-27T21:41:34Z</time>
      </trkpt>
      <trkpt lat="47.24957" lon="-1.58098">
        <ele>15</ele>
        <time>2021-11-27T21:41:45Z</time>
      </trkpt>
      <trkpt lat="47.24958" lon="-1.58122">
        <ele>15</ele>
        <time>2021-11-27T21:42:07Z</time>
      </trkpt>
      <trkpt lat="47.24963" lon="-1.58183">
        <ele>16</ele>
        <time>2021-11-27T21:43:02Z</time>
      </trkpt>
      <trkpt lat="47.24972" lon="-1.58247">
        <ele>20</ele>
        <time>2021-11-27T21:44:02Z</time>
      </trkpt>
      <trkpt lat="47.24973" lon="-1.58281">
        <ele>22</ele>
        <time>2021-11-27T21:44:32Z</time>
      </trkpt>
      <trkpt lat="47.2498" lon="-1.58311">
        <ele>25</ele>
        <time>2021-11-27T21:45:01Z</time>
      </trkpt>
      <trkpt lat="47.24978" lon="-1.58351">
        <ele>27</ele>
        <time>2021-11-27T21:45:37Z</time>
      </trkpt>
      <trkpt lat="47.24969" lon="-1.58357">
        <ele>28</ele>
        <time>2021-11-27T21:45:51Z</time>
      </trkpt>
      <trkpt lat="47.24958" lon="-1.58389">
        <ele>29</ele>
        <time>2021-11-27T21:46:23Z</time>
      </trkpt>
      <trkpt lat="47.24954" lon="-1.5841">
        <ele>30</ele>
        <time>2021-11-27T21:46:43Z</time>
      </trkpt>
      <trkpt lat="47.24952" lon="-1.58435">
        <ele>31</ele>
        <time>2021-11-27T21:47:06Z</time>
      </trkpt>
      <trkpt lat="47.24956" lon="-1.5847">
        <ele>32</ele>
        <time>2021-11-27T21:47:38Z</time>
      </trkpt>
      <trkpt lat="47.24951" lon="-1.58481">
        <ele>32</ele>
        <time>2021-11-27T21:47:50Z</time>
      </trkpt>
      <trkpt lat="47.24942" lon="-1.58488">
        <ele>33</ele>
        <time>2021-11-27T21:48:03Z</time>
      </trkpt>
      <trkpt lat="47.24923" lon="-1.58495">
        <ele>34</ele>
        <time>2021-11-27T21:48:30Z</time>
      </trkpt>
      <trkpt lat="47.24913" lon="-1.58495">
        <ele>34</ele>
        <time>2021-11-27T21:48:43Z</time>
      </trkpt>
      <trkpt lat="47.24907" lon="-1.58454">
        <ele>33</ele>
        <time>2021-11-27T21:49:21Z</time>
      </trkpt>
      <trkpt lat="47.24895" lon="-1.58441">
        <ele>32</ele>
        <time>2021-11-27T21:49:41Z</time>
      </trkpt>
      <trkpt lat="47.24889" lon="-1.58429">
        <ele>32</ele>
        <time>2021-11-27T21:49:54Z</time>
      </trkpt>
      <trkpt lat="47.24889" lon="-1.58432">
        <ele>32</ele>
        <time>2021-11-27T21:49:57Z</time>
      </trkpt>
      <trkpt lat="47.24879" lon="-1.58423">
        <ele>31</ele>
        <time>2021-11-27T21:50:13Z</time>
      </trkpt>
      <trkpt lat="47.24867" lon="-1.58402">
        <ele>29</ele>
        <time>2021-11-27T21:50:37Z</time>
      </trkpt>
      <trkpt lat="47.2486" lon="-1.58372">
        <ele>27</ele>
        <time>2021-11-27T21:51:06Z</time>
      </trkpt>
      <trkpt lat="47.2486" lon="-1.58366">
        <ele>27</ele>
        <time>2021-11-27T21:51:12Z</time>
      </trkpt>
      <trkpt lat="47.24866" lon="-1.58349">
        <ele>26</ele>
        <time>2021-11-27T21:51:29Z</time>
      </trkpt>
      <trkpt lat="47.24866" lon="-1.58322">
        <ele>24</ele>
        <time>2021-11-27T21:51:53Z</time>
      </trkpt>
      <trkpt lat="47.24862" lon="-1.58312">
        <ele>23</ele>
        <time>2021-11-27T21:52:04Z</time>
      </trkpt>
      <trkpt lat="47.24865" lon="-1.58308">
        <ele>23</ele>
        <time>2021-11-27T21:52:09Z</time>
      </trkpt>
      <trkpt lat="47.24858" lon="-1.58298">
        <ele>22</ele>
        <time>2021-11-27T21:52:22Z</time>
      </trkpt>
      <trkpt lat="47.24873" lon="-1.58211">
        <ele>17</ele>
        <time>2021-11-27T21:53:44Z</time>
      </trkpt>
      <trkpt lat="47.24875" lon="-1.58187">
        <ele>16</ele>
        <time>2021-11-27T21:54:06Z</time>
      </trkpt>
      <trkpt lat="47.24902" lon="-1.58085">
        <ele>14</ele>
        <time>2021-11-27T21:55:45Z</time>
      </trkpt>
      <trkpt lat="47.24899" lon="-1.58061">
        <ele>13</ele>
        <time>2021-11-27T21:56:07Z</time>
      </trkpt>
      <trkpt lat="47.24895" lon="-1.58054">
        <ele>13</ele>
        <time>2021-11-27T21:56:15Z</time>
      </trkpt>
      <trkpt lat="47.24886" lon="-1.58056">
        <ele>13</ele>
        <time>2021-11-27T21:56:27Z</time>
      </trkpt>
      <trkpt lat="47.24878" lon="-1.58068">
        <ele>13</ele>
        <time>2021-11-27T21:56:43Z</time>
      </trkpt>
      <trkpt lat="47.24867" lon="-1.58095">
        <ele>14</ele>
        <time>2021-11-27T21:57:11Z</time>
      </trkpt>
      <trkpt lat="47.24851" lon="-1.58108">
        <ele>14</ele>
        <time>2021-11-27T21:57:35Z</time>
      </trkpt>
      <trkpt lat="47.24844" lon="-1.58125">
        <ele>15</ele>
        <time>2021-11-27T21:57:53Z</time>
      </trkpt>
      <trkpt lat="47.24838" lon="-1.58133">
        <ele>15</ele>
        <time>2021-11-27T21:58:04Z</time>
      </trkpt>
      <trkpt lat="47.24831" lon="-1.58158">
        <ele>16</ele>
        <time>2021-11-27T21:58:29Z</time>
      </trkpt>
      <trkpt lat="47.24821" lon="-1.58181">
        <ele>18</ele>
        <time>2021-11-27T21:58:53Z</time>
      </trkpt>
      <trkpt lat="47.24806" lon="-1.58201">
        <ele>20</ele>
        <time>2021-11-27T21:59:20Z</time>
      </trkpt>
      <trkpt lat="47.24796" lon="-1.58208">
        <ele>21</ele>
        <time>2021-11-27T21:59:35Z</time>
      </trkpt>
      <trkpt lat="47.24782" lon="-1.58238">
        <ele>23</ele>
        <time>2021-11-27T22:00:08Z</time>
      </trkpt>
      <trkpt lat="47.24775" lon="-1.58247">
        <ele>23</ele>
        <time>2021-11-27T22:00:21Z</time>
      </trkpt>
      <trkpt lat="47.24747" lon="-1.58268">
        <ele>27</ele>
        <time>2021-11-27T22:01:03Z</time>
      </trkpt>
      <trkpt lat="47.24743" lon="-1.58268">
        <ele>27</ele>
        <time>2021-11-27T22:01:08Z</time>
      </trkpt>
      <trkpt lat="47.24737" lon="-1.58261">
        <ele>28</ele>
        <time>2021-11-27T22:01:18Z</time>
      </trkpt>
      <trkpt lat="47.24728" lon="-1.58244">
        <ele>29</ele>
        <time>2021-11-27T22:01:38Z</time>
      </trkpt>
      <trkpt lat="47.24721" lon="-1.58201">
        <ele>30</ele>
        <time>2021-11-27T22:02:18Z</time>
      </trkpt>
      <trkpt lat="47.24722" lon="-1.58192">
        <ele>30</ele>
        <time>2021-11-27T22:02:26Z</time>
      </trkpt>
      <trkpt lat="47.2471" lon="-1.58185">
        <ele>31</ele>
        <time>2021-11-27T22:02:43Z</time>
      </trkpt>
      <trkpt lat="47.24712" lon="-1.58166">
        <ele>31</ele>
        <time>2021-11-27T22:03:01Z</time>
      </trkpt>
      <trkpt lat="47.24709" lon="-1.58156">
        <ele>30</ele>
        <time>2021-11-27T22:03:11Z</time>
      </trkpt>
      <trkpt lat="47.24691" lon="-1.58137">
        <ele>31</ele>
        <time>2021-11-27T22:03:40Z</time>
      </trkpt>
      <trkpt lat="47.24662" lon="-1.58089">
        <ele>31</ele>
        <time>2021-11-27T22:04:38Z</time>
      </trkpt>
      <trkpt lat="47.24659" lon="-1.58079">
        <ele>31</ele>
        <time>2021-11-27T22:04:48Z</time>
      </trkpt>
      <trkpt lat="47.24659" lon="-1.58068">
        <ele>30</ele>
        <time>2021-11-27T22:04:58Z</time>
      </trkpt>
      <trkpt lat="47.24654" lon="-1.58065">
        <ele>30</ele>
        <time>2021-11-27T22:05:05Z</time>
      </trkpt>
      <trkpt lat="47.24649" lon="-1.58056">
        <ele>29</ele>
        <time>2021-11-27T22:05:16Z</time>
      </trkpt>
      <trkpt lat="47.24643" lon="-1.58031">
        <ele>28</ele>
        <time>2021-11-27T22:05:40Z</time>
      </trkpt>
      <trkpt lat="47.24623" lon="-1.58002">
        <ele>27</ele>
        <time>2021-11-27T22:06:17Z</time>
      </trkpt>
      <trkpt lat="47.24609" lon="-1.57995">
        <ele>28</ele>
        <time>2021-11-27T22:06:37Z</time>
      </trkpt>
      <trkpt lat="47.24603" lon="-1.58003">
        <ele>29</ele>
        <time>2021-11-27T22:06:48Z</time>
      </trkpt>
      <trkpt lat="47.24603" lon="-1.58008">
        <ele>30</ele>
        <time>2021-11-27T22:06:52Z</time>
      </trkpt>
      <trkpt lat="47.24596" lon="-1.58024">
        <ele>31</ele>
        <time>2021-11-27T22:07:10Z</time>
      </trkpt>
      <trkpt lat="47.24584" lon="-1.58037">
        <ele>32</ele>
        <time>2021-11-27T22:07:30Z</time>
      </trkpt>
      <trkpt lat="47.24572" lon="-1.58059">
        <ele>33</ele>
        <time>2021-11-27T22:07:55Z</time>
      </trkpt>
      <trkpt lat="47.24564" lon="-1.58059">
        <ele>33</ele>
        <time>2021-11-27T22:08:06Z</time>
      </trkpt>
      <trkpt lat="47.24554" lon="-1.58051">
        <ele>33</ele>
        <time>2021-11-27T22:08:21Z</time>
      </trkpt>
      <trkpt lat="47.24547" lon="-1.5805">
        <ele>33</ele>
        <time>2021-11-27T22:08:30Z</time>
      </trkpt>
      <trkpt lat="47.24519" lon="-1.58074">
        <ele>34</ele>
        <time>2021-11-27T22:09:14Z</time>
      </trkpt>
      <trkpt lat="47.24496" lon="-1.58109">
        <ele>34</ele>
        <time>2021-11-27T22:09:58Z</time>
      </trkpt>
      <trkpt lat="47.2449" lon="-1.5813">
        <ele>34</ele>
        <time>2021-11-27T22:10:18Z</time>
      </trkpt>
      <trkpt lat="47.24485" lon="-1.58138">
        <ele>34</ele>
        <time>2021-11-27T22:10:28Z</time>
      </trkpt>
      <trkpt lat="47.24454" lon="-1.58164">
        <ele>34</ele>
        <time>2021-11-27T22:11:16Z</time>
      </trkpt>
      <trkpt lat="47.24439" lon="-1.58189">
        <ele>33</ele>
        <time>2021-11-27T22:11:46Z</time>
      </trkpt>
      <trkpt lat="47.24422" lon="-1.58208">
        <ele>33</ele>
        <time>2021-11-27T22:12:15Z</time>
      </trkpt>
      <trkpt lat="47.24401" lon="-1.58224">
        <ele>33</ele>
        <time>2021-11-27T22:12:46Z</time>
      </trkpt>
      <trkpt lat="47.24378" lon="-1.58225">
        <ele>34</ele>
        <time>2021-11-27T22:13:17Z</time>
      </trkpt>
      <trkpt lat="47.24374" lon="-1.58223">
        <ele>34</ele>
        <time>2021-11-27T22:13:22Z</time>
      </trkpt>
      <trkpt lat="47.24369" lon="-1.58213">
        <ele>35</ele>
        <time>2021-11-27T22:13:34Z</time>
      </trkpt>
      <trkpt lat="47.24371" lon="-1.582">
        <ele>35</ele>
        <time>2021-11-27T22:13:46Z</time>
      </trkpt>
      <trkpt lat="47.24382" lon="-1.5817">
        <ele>35</ele>
        <time>2021-11-27T22:14:17Z</time>
      </trkpt>
      <trkpt lat="47.24392" lon="-1.58152">
        <ele>35</ele>
        <time>2021-11-27T22:14:38Z</time>
      </trkpt>
      <trkpt lat="47.24404" lon="-1.58113">
        <ele>36</ele>
        <time>2021-11-27T22:15:16Z</time>
      </trkpt>
      <trkpt lat="47.24411" lon="-1.58077">
        <ele>37</ele>
        <time>2021-11-27T22:15:50Z</time>
      </trkpt>
      <trkpt lat="47.24408" lon="-1.5803">
        <ele>36</ele>
        <time>2021-11-27T22:16:33Z</time>
      </trkpt>
      <trkpt lat="47.24404" lon="-1.58016">
        <ele>36</ele>
        <time>2021-11-27T22:16:47Z</time>
      </trkpt>
      <trkpt lat="47.24392" lon="-1.57998">
        <ele>36</ele>
        <time>2021-11-27T22:17:10Z</time>
      </trkpt>
      <trkpt lat="47.2439" lon="-1.57987">
        <ele>36</ele>
        <time>2021-11-27T22:17:20Z</time>
      </trkpt>
      <trkpt lat="47.24389" lon="-1.57991">
        <ele>36</ele>
        <time>2021-11-27T22:17:24Z</time>
      </trkpt>
      <trkpt lat="47.24381" lon="-1.5799">
        <ele>36</ele>
        <time>2021-11-27T22:17:35Z</time>
      </trkpt>
      <trkpt lat="47.2438" lon="-1.57984">
        <ele>36</ele>
        <time>2021-11-27T22:17:40Z</time>
      </trkpt>
      <trkpt lat="47.24343" lon="-1.57954">
        <ele>36</ele>
        <time>2021-11-27T22:18:37Z</time>
      </trkpt>
      <trkpt lat="47.24332" lon="-1.57939">
        <ele>36</ele>
        <time>2021-11-27T22:18:57Z</time>
      </trkpt>
      <trkpt lat="47.24329" lon="-1.57918">
        <ele>36</ele>
        <time>2021-11-27T22:19:16Z</time>
      </trkpt>
      <trkpt lat="47.24331" lon="-1.57893">
        <ele>36</ele>
        <time>2021-11-27T22:19:39Z</time>
      </trkpt>
      <trkpt lat="47.2433" lon="-1.57852">
        <ele>36</ele>
        <time>2021-11-27T22:20:16Z</time>
      </trkpt>
      <trkpt lat="47.24324" lon="-1.5782">
        <ele>36</ele>
        <time>2021-11-27T22:20:46Z</time>
      </trkpt>
      <trkpt lat="47.24319" lon="-1.57809">
        <ele>37</ele>
        <time>2021-11-27T22:20:58Z</time>
      </trkpt>
      <trkpt lat="47.24316" lon="-1.57805">
        <ele>37</ele>
        <time>2021-11-27T22:21:04Z</time>
      </trkpt>
      <trkpt lat="47.24294" lon="-1.57793">
        <ele>38</ele>
        <time>2021-11-27T22:21:35Z</time>
      </trkpt>
      <trkpt lat="47.24289" lon="-1.57795">
        <ele>38</ele>
        <time>2021-11-27T22:21:42Z</time>
      </trkpt>
      <trkpt lat="47.24263" lon="-1.57796">
        <ele>39</ele>
        <time>2021-11-27T22:22:16Z</time>
      </trkpt>
      <trkpt lat="47.24252" lon="-1.57795">
        <ele>39</ele>
        <time>2021-11-27T22:22:31Z</time>
      </trkpt>
      <trkpt lat="47.24242" lon="-1.57791">
        <ele>39</ele>
        <time>2021-11-27T22:22:45Z</time>
      </trkpt>
      <trkpt lat="47.24226" lon="-1.57794">
        <ele>39</ele>
        <time>2021-11-27T22:23:07Z</time>
      </trkpt>
      <trkpt lat="47.24205" lon="-1.57809">
        <ele>39</ele>
        <time>2021-11-27T22:23:38Z</time>
      </trkpt>
      <trkpt lat="47.24198" lon="-1.57811">
        <ele>39</ele>
        <time>2021-11-27T22:23:47Z</time>
      </trkpt>
      <trkpt lat="47.24167" lon="-1.57807">
        <ele>38</ele>
        <time>2021-11-27T22:24:29Z</time>
      </trkpt>
      <trkpt lat="47.24151" lon="-1.57815">
        <ele>39</ele>
        <time>2021-11-27T22:24:51Z</time>
      </trkpt>
      <trkpt lat="47.24136" lon="-1.57816">
        <ele>39</ele>
        <time>2021-11-27T22:25:11Z</time>
      </trkpt>
      <trkpt lat="47.24117" lon="-1.57809">
        <ele>39</ele>
        <time>2021-11-27T22:25:37Z</time>
      </trkpt>
      <trkpt lat="47.24113" lon="-1.57806">
        <ele>39</ele>
        <time>2021-11-27T22:25:43Z</time>
      </trkpt>
      <trkpt lat="47.24111" lon="-1.57799">
        <ele>39</ele>
        <time>2021-11-27T22:25:50Z</time>
      </trkpt>
      <trkpt lat="47.24123" lon="-1.57754">
        <ele>40</ele>
        <time>2021-11-27T22:26:34Z</time>
      </trkpt>
      <trkpt lat="47.24126" lon="-1.57732">
        <ele>39</ele>
        <time>2021-11-27T22:26:54Z</time>
      </trkpt>
      <trkpt lat="47.24136" lon="-1.57718">
        <ele>39</ele>
        <time>2021-11-27T22:27:13Z</time>
      </trkpt>
      <trkpt lat="47.24149" lon="-1.57691">
        <ele>39</ele>
        <time>2021-11-27T22:27:43Z</time>
      </trkpt>
      <trkpt lat="47.24147" lon="-1.57668">
        <ele>38</ele>
        <time>2021-11-27T22:28:04Z</time>
      </trkpt>
      <trkpt lat="47.24154" lon="-1.57628">
        <ele>38</ele>
        <time>2021-11-27T22:28:41Z</time>
      </trkpt>
      <trkpt lat="47.24157" lon="-1.57593">
        <ele>38</ele>
        <time>2021-11-27T22:29:13Z</time>
      </trkpt>
      <trkpt lat="47.24156" lon="-1.5757">
        <ele>38</ele>
        <time>2021-11-27T22:29:34Z</time>
      </trkpt>
      <trkpt lat="47.24158" lon="-1.57555">
        <ele>39</ele>
        <time>2021-11-27T22:29:48Z</time>
      </trkpt>
      <trkpt lat="47.24155" lon="-1.57507">
        <ele>40</ele>
        <time>2021-11-27T22:30:32Z</time>
      </trkpt>
      <trkpt lat="47.2416" lon="-1.57481">
        <ele>39</ele>
        <time>2021-11-27T22:30:56Z</time>
      </trkpt>
      <trkpt lat="47.2416" lon="-1.57456">
        <ele>38</ele>
        <time>2021-11-27T22:31:19Z</time>
      </trkpt>
      <trkpt lat="47.24156" lon="-1.57432">
        <ele>37</ele>
        <time>2021-11-27T22:31:41Z</time>
      </trkpt>
      <trkpt lat="47.24158" lon="-1.57384">
        <ele>36</ele>
        <time>2021-11-27T22:32:25Z</time>
      </trkpt>
      <trkpt lat="47.24156" lon="-1.5736">
        <ele>36</ele>
        <time>2021-11-27T22:32:47Z</time>
      </trkpt>
      <trkpt lat="47.24162" lon="-1.57345">
        <ele>35</ele>
        <time>2021-11-27T22:33:02Z</time>
      </trkpt>
      <trkpt lat="47.24162" lon="-1.57337">
        <ele>35</ele>
        <time>2021-11-27T22:33:10Z</time>
      </trkpt>
      <trkpt lat="47.24158" lon="-1.57327">
        <ele>35</ele>
        <time>2021-11-27T22:33:20Z</time>
      </trkpt>
      <trkpt lat="47.2416" lon="-1.57326">
        <ele>35</ele>
        <time>2021-11-27T22:33:23Z</time>
      </trkpt>
      <trkpt lat="47.24162" lon="-1.57312">
        <ele>35</ele>
        <time>2021-11-27T22:33:36Z</time>
      </trkpt>
      <trkpt lat="47.24162" lon="-1.57293">
        <ele>35</ele>
        <time>2021-11-27T22:33:53Z</time>
      </trkpt>
      <trkpt lat="47.24168" lon="-1.57277">
        <ele>36</ele>
        <time>2021-11-27T22:34:10Z</time>
      </trkpt>
      <trkpt lat="47.24175" lon="-1.57234">
        <ele>36</ele>
        <time>2021-11-27T22:34:50Z</time>
      </trkpt>
      <trkpt lat="47.24179" lon="-1.57223">
        <ele>36</ele>
        <time>2021-11-27T22:35:01Z</time>
      </trkpt>
      <trkpt lat="47.24188" lon="-1.57216">
        <ele>36</ele>
        <time>2021-11-27T22:35:15Z</time>
      </trkpt>
      <trkpt lat="47.24197" lon="-1.57203">
        <ele>36</ele>
        <time>2021-11-27T22:35:31Z</time>
      </trkpt>
      <trkpt lat="47.24207" lon="-1.57169">
        <ele>36</ele>
        <time>2021-11-27T22:36:05Z</time>
      </trkpt>
      <trkpt lat="47.24211" lon="-1.57163">
        <ele>36</ele>
        <time>2021-11-27T22:36:13Z</time>
      </trkpt>
      <trkpt lat="47.24238" lon="-1.57161">
        <ele>37</ele>
        <time>2021-11-27T22:36:49Z</time>
      </trkpt>
      <trkpt lat="47.2424" lon="-1.57156">
        <ele>36</ele>
        <time>2021-11-27T22:36:54Z</time>
      </trkpt>
      <trkpt lat="47.24239" lon="-1.57137">
        <ele>36</ele>
        <time>2021-11-27T22:37:11Z</time>
      </trkpt>
      <trkpt lat="47.24242" lon="-1.57134">
        <ele>35</ele>
        <time>2021-11-27T22:37:16Z</time>
      </trkpt>
      <trkpt lat="47.24265" lon="-1.57143">
        <ele>35</ele>
        <time>2021-11-27T22:37:48Z</time>
      </trkpt>
      <trkpt lat="47.24272" lon="-1.57142">
        <ele>35</ele>
        <time>2021-11-27T22:37:57Z</time>
      </trkpt>
      <trkpt lat="47.24286" lon="-1.57134">
        <ele>34</ele>
        <time>2021-11-27T22:38:17Z</time>
      </trkpt>
      <trkpt lat="47.24294" lon="-1.57134">
        <ele>34</ele>
        <time>2021-11-27T22:38:28Z</time>
      </trkpt>
      <trkpt lat="47.24299" lon="-1.57125">
        <ele>33</ele>
        <time>2021-11-27T22:38:38Z</time>
      </trkpt>
      <trkpt lat="47.24326" lon="-1.57101">
        <ele>30</ele>
        <time>2021-11-27T22:39:21Z</time>
      </trkpt>
      <trkpt lat="47.24327" lon="-1.57081">
        <ele>29</ele>
        <time>2021-11-27T22:39:39Z</time>
      </trkpt>
      <trkpt lat="47.24339" lon="-1.57046">
        <ele>26</ele>
        <time>2021-11-27T22:40:14Z</time>
      </trkpt>
      <trkpt lat="47.24334" lon="-1.57021">
        <ele>24</ele>
        <time>2021-11-27T22:40:38Z</time>
      </trkpt>
      <trkpt lat="47.24336" lon="-1.57009">
        <ele>23</ele>
        <time>2021-11-27T22:40:49Z</time>
      </trkpt>
      <trkpt lat="47.24332" lon="-1.57003">
        <ele>23</ele>
        <time>2021-11-27T22:40:57Z</time>
      </trkpt>
      <trkpt lat="47.24334" lon="-1.56996">
        <ele>23</ele>
        <time>2021-11-27T22:41:04Z</time>
      </trkpt>
      <trkpt lat="47.24331" lon="-1.57002">
        <ele>23</ele>
        <time>2021-11-27T22:41:10Z</time>
      </trkpt>
      <trkpt lat="47.24329" lon="-1.56999">
        <ele>23</ele>
        <time>2021-11-27T22:41:14Z</time>
      </trkpt>
      <trkpt lat="47.24335" lon="-1.56993">
        <ele>23</ele>
        <time>2021-11-27T22:41:24Z</time>
      </trkpt>
      <trkpt lat="47.2434" lon="-1.56972">
        <ele>22</ele>
        <time>2021-11-27T22:41:44Z</time>
      </trkpt>
      <trkpt lat="47.2435" lon="-1.56948">
        <ele>20</ele>
        <time>2021-11-27T22:42:09Z</time>
      </trkpt>
      <trkpt lat="47.2435" lon="-1.56936">
        <ele>20</ele>
        <time>2021-11-27T22:42:20Z</time>
      </trkpt>
      <trkpt lat="47.24353" lon="-1.56925">
        <ele>20</ele>
        <time>2021-11-27T22:42:31Z</time>
      </trkpt>
      <trkpt lat="47.24367" lon="-1.56895">
        <ele>18</ele>
        <time>2021-11-27T22:43:04Z</time>
      </trkpt>
      <trkpt lat="47.24373" lon="-1.56866">
        <ele>18</ele>
        <time>2021-11-27T22:43:32Z</time>
      </trkpt>
      <trkpt lat="47.24373" lon="-1.56855">
        <ele>18</ele>
        <time>2021-11-27T22:43:41Z</time>
      </trkpt>
      <trkpt lat="47.24363" lon="-1.56808">
        <ele>20</ele>
        <time>2021-11-27T22:44:26Z</time>
      </trkpt>
      <trkpt lat="47.24358" lon="-1.56798">
        <ele>20</ele>
        <time>2021-11-27T22:44:37Z</time>
      </trkpt>
      <trkpt lat="47.24356" lon="-1.56744">
        <ele>21</ele>
        <time>2021-11-27T22:45:26Z</time>
      </trkpt>
      <trkpt lat="47.24352" lon="-1.56726">
        <ele>21</ele>
        <time>2021-11-27T22:45:44Z</time>
      </trkpt>
      <trkpt lat="47.24348" lon="-1.56719">
        <ele>22</ele>
        <time>2021-11-27T22:45:52Z</time>
      </trkpt>
      <trkpt lat="47.24346" lon="-1.5669">
        <ele>22</ele>
        <time>2021-11-27T22:46:18Z</time>
      </trkpt>
      <trkpt lat="47.24348" lon="-1.56658">
        <ele>22</ele>
        <time>2021-11-27T22:46:47Z</time>
      </trkpt>
      <trkpt lat="47.24345" lon="-1.56644">
        <ele>22</ele>
        <time>2021-11-27T22:47:01Z</time>
      </trkpt>
      <trkpt lat="47.24346" lon="-1.56631">
        <ele>22</ele>
        <time>2021-11-27T22:47:12Z</time>
      </trkpt>
      <trkpt lat="47.24342" lon="-1.56597">
        <ele>23</ele>
        <time>2021-11-27T22:47:44Z</time>
      </trkpt>
      <trkpt lat="47.24343" lon="-1.56563">
        <ele>23</ele>
        <time>2021-11-27T22:48:15Z</time>
      </trkpt>
      <trkpt lat="47.24334" lon="-1.56543">
        <ele>24</ele>
        <time>2021-11-27T22:48:36Z</time>
      </trkpt>
      <trkpt lat="47.24334" lon="-1.56534">
        <ele>24</ele>
        <time>2021-11-27T22:48:44Z</time>
      </trkpt>
      <trkpt lat="47.24341" lon="-1.56515">
        <ele>23</ele>
        <time>2021-11-27T22:49:04Z</time>
      </trkpt>
      <trkpt lat="47.24347" lon="-1.56508">
        <ele>23</ele>
        <time>2021-11-27T22:49:14Z</time>
      </trkpt>
      <trkpt lat="47.24354" lon="-1.56487">
        <ele>22</ele>
        <time>2021-11-27T22:49:35Z</time>
      </trkpt>
      <trkpt lat="47.24355" lon="-1.56477">
        <ele>22</ele>
        <time>2021-11-27T22:49:45Z</time>
      </trkpt>
      <trkpt lat="47.24351" lon="-1.56469">
        <ele>22</ele>
        <time>2021-11-27T22:49:54Z</time>
      </trkpt>
      <trkpt lat="47.2435" lon="-1.56453">
        <ele>23</ele>
        <time>2021-11-27T22:50:08Z</time>
      </trkpt>
      <trkpt lat="47.24365" lon="-1.56421">
        <ele>21</ele>
        <time>2021-11-27T22:50:43Z</time>
      </trkpt>
      <trkpt lat="47.24372" lon="-1.56391">
        <ele>21</ele>
        <time>2021-11-27T22:51:12Z</time>
      </trkpt>
      <trkpt lat="47.24374" lon="-1.56375">
        <ele>20</ele>
        <time>2021-11-27T22:51:27Z</time>
      </trkpt>
      <trkpt lat="47.24369" lon="-1.56363">
        <ele>21</ele>
        <time>2021-11-27T22:51:40Z</time>
      </trkpt>
      <trkpt lat="47.24368" lon="-1.5635">
        <ele>21</ele>
        <time>2021-11-27T22:51:51Z</time>
      </trkpt>
      <trkpt lat="47.24377" lon="-1.56292">
        <ele>20</ele>
        <time>2021-11-27T22:52:45Z</time>
      </trkpt>
      <trkpt lat="47.24384" lon="-1.56265">
        <ele>19</ele>
        <time>2021-11-27T22:53:12Z</time>
      </trkpt>
      <trkpt lat="47.24383" lon="-1.56248">
        <ele>20</ele>
        <time>2021-11-27T22:53:27Z</time>
      </trkpt>
      <trkpt lat="47.24379" lon="-1.56228">
        <ele>19</ele>
        <time>2021-11-27T22:53:46Z</time>
      </trkpt>
      <trkpt lat="47.2436" lon="-1.56203">
        <ele>19</ele>
        <time>2021-11-27T22:54:20Z</time>
      </trkpt>
      <trkpt lat="47.24353" lon="-1.56198">
        <ele>19</ele>
        <time>2021-11-27T22:54:30Z</time>
      </trkpt>
      <trkpt lat="47.24347" lon="-1.56182">
        <ele>18</ele>
        <time>2021-11-27T22:54:47Z</time>
      </trkpt>
      <trkpt lat="47.24325" lon="-1.56156">
        <ele>18</ele>
        <time>2021-11-27T22:55:24Z</time>
      </trkpt>
      <trkpt lat="47.24316" lon="-1.56149">
        <ele>18</ele>
        <time>2021-11-27T22:55:38Z</time>
      </trkpt>
      <trkpt lat="47.2431" lon="-1.56137">
        <ele>18</ele>
        <time>2021-11-27T22:55:52Z</time>
      </trkpt>
      <trkpt lat="47.24303" lon="-1.56131">
        <ele>18</ele>
        <time>2021-11-27T22:56:02Z</time>
      </trkpt>
      <trkpt lat="47.24294" lon="-1.56111">
        <ele>17</ele>
        <time>2021-11-27T22:56:24Z</time>
      </trkpt>
      <trkpt lat="47.2428" lon="-1.56091">
        <ele>17</ele>
        <time>2021-11-27T22:56:50Z</time>
      </trkpt>
      <trkpt lat="47.24271" lon="-1.56069">
        <ele>17</ele>
        <time>2021-11-27T22:57:13Z</time>
      </trkpt>
      <trkpt lat="47.24267" lon="-1.56047">
        <ele>17</ele>
        <time>2021-11-27T22:57:34Z</time>
      </trkpt>
      <trkpt lat="47.24275" lon="-1.56039">
        <ele>16</ele>
        <time>2021-11-27T22:57:47Z</time>
      </trkpt>
      <trkpt lat="47.24271" lon="-1.56014">
        <ele>16</ele>
        <time>2021-11-27T22:58:10Z</time>
      </trkpt>
      <trkpt lat="47.24258" lon="-1.55973">
        <ele>14</ele>
        <time>2021-11-27T22:58:51Z</time>
      </trkpt>
      <trkpt lat="47.24259" lon="-1.55933">
        <ele>12</ele>
        <time>2021-11-27T22:59:27Z</time>
      </trkpt>
      <trkpt lat="47.24253" lon="-1.55903">
        <ele>10</ele>
        <time>2021-11-27T22:59:56Z</time>
      </trkpt>
      <trkpt lat="47.24253" lon="-1.55887">
        <ele>10</ele>
        <time>2021-11-27T23:00:10Z</time>
      </trkpt>
      <trkpt lat="47.24247" lon="-1.55849">
        <ele>10</ele>
        <time>2021-11-27T23:00:46Z</time>
      </trkpt>
      <trkpt lat="47.24242" lon="-1.55829">
        <ele>11</ele>
        <time>2021-11-27T23:01:05Z</time>
      </trkpt>
      <trkpt lat="47.24242" lon="-1.5581">
        <ele>11</ele>
        <time>2021-11-27T23:01:22Z</time>
      </trkpt>
      <trkpt lat="47.24237" lon="-1.55784">
        <ele>11</ele>
        <time>2021-11-27T23:01:47Z</time>
      </trkpt>
      <trkpt lat="47.24241" lon="-1.55774">
        <ele>11</ele>
        <time>2021-11-27T23:01:57Z</time>
      </trkpt>
      <trkpt lat="47.2424" lon="-1.55756">
        <ele>11</ele>
        <time>2021-11-27T23:02:14Z</time>
      </trkpt>
      <trkpt lat="47.24229" lon="-1.55732">
        <ele>12</ele>
        <time>2021-11-27T23:02:40Z</time>
      </trkpt>
      <trkpt lat="47.24231" lon="-1.55693">
        <ele>12</ele>
        <time>2021-11-27T23:03:15Z</time>
      </trkpt>
      <trkpt lat="47.24228" lon="-1.55655">
        <ele>12</ele>
        <time>2021-11-27T23:03:50Z</time>
      </trkpt>
      <trkpt lat="47.24223" lon="-1.55641">
        <ele>12</ele>
        <time>2021-11-27T23:04:04Z</time>
      </trkpt>
      <trkpt lat="47.24209" lon="-1.55632">
        <ele>13</ele>
        <time>2021-11-27T23:04:25Z</time>
      </trkpt>
      <trkpt lat="47.24204" lon="-1.55625">
        <ele>13</ele>
        <time>2021-11-27T23:04:34Z</time>
      </trkpt>
      <trkpt lat="47.24202" lon="-1.55614">
        <ele>13</ele>
        <time>2021-11-27T23:04:44Z</time>
      </trkpt>
      <trkpt lat="47.24202" lon="-1.55608">
        <ele>13</ele>
        <time>2021-11-27T23:04:50Z</time>
      </trkpt>
      <trkpt lat="47.24208" lon="-1.55604">
        <ele>13</ele>
        <time>2021-11-27T23:04:58Z</time>
      </trkpt>
      <trkpt lat="47.24213" lon="-1.55588">
        <ele>12</ele>
        <time>2021-11-27T23:05:14Z</time>
      </trkpt>
      <trkpt lat="47.24225" lon="-1.55565">
        <ele>12</ele>
        <time>2021-11-27T23:05:41Z</time>
      </trkpt>
      <trkpt lat="47.24224" lon="-1.55543">
        <ele>12</ele>
        <time>2021-11-27T23:06:01Z</time>
      </trkpt>
      <trkpt lat="47.24226" lon="-1.55528">
        <ele>12</ele>
        <time>2021-11-27T23:06:14Z</time>
      </trkpt>
      <trkpt lat="47.24236" lon="-1.55497">
        <ele>11</ele>
        <time>2021-11-27T23:06:45Z</time>
      </trkpt>
      <trkpt lat="47.24234" lon="-1.55473">
        <ele>11</ele>
        <time>2021-11-27T23:07:07Z</time>
      </trkpt>
      <trkpt lat="47.24237" lon="-1.5544">
        <ele>11</ele>
        <time>2021-11-27T23:07:38Z</time>
      </trkpt>
      <trkpt lat="47.24254" lon="-1.55376">
        <ele>8</ele>
        <time>2021-11-27T23:08:40Z</time>
      </trkpt>
      <trkpt lat="47.24257" lon="-1.5537">
        <ele>8</ele>
        <time>2021-11-27T23:08:47Z</time>
      </trkpt>
      <trkpt lat="47.24272" lon="-1.55369">
        <ele>8</ele>
        <time>2021-11-27T23:09:07Z</time>
      </trkpt>
      <trkpt lat="47.24274" lon="-1.55367">
        <ele>8</ele>
        <time>2021-11-27T23:09:10Z</time>
      </trkpt>
      <trkpt lat="47.24289" lon="-1.55373">
        <ele>8</ele>
        <time>2021-11-27T23:09:31Z</time>
      </trkpt>
      <trkpt lat="47.24292" lon="-1.55372">
        <ele>8</ele>
        <time>2021-11-27T23:09:35Z</time>
      </trkpt>
      <trkpt lat="47.24295" lon="-1.55363">
        <ele>8</ele>
        <time>2021-11-27T23:09:44Z</time>
      </trkpt>
      <trkpt lat="47.24295" lon="-1.55349">
        <ele>8</ele>
        <time>2021-11-27T23:09:56Z</time>
      </trkpt>
      <trkpt lat="47.24292" lon="-1.55351">
        <ele>8</ele>
        <time>2021-11-27T23:10:01Z</time>
      </trkpt>
      <trkpt lat="47.24292" lon="-1.55333">
        <ele>8</ele>
        <time>2021-11-27T23:10:17Z</time>
      </trkpt>
      <trkpt lat="47.24287" lon="-1.55312">
        <ele>8</ele>
        <time>2021-11-27T23:10:37Z</time>
      </trkpt>
      <trkpt lat="47.24292" lon="-1.55275">
        <ele>10</ele>
        <time>2021-11-27T23:11:11Z</time>
      </trkpt>
      <trkpt lat="47.24294" lon="-1.55229">
        <ele>11</ele>
        <time>2021-11-27T23:11:53Z</time>
      </trkpt>
      <trkpt lat="47.24303" lon="-1.55175">
        <ele>13</ele>
        <time>2021-11-27T23:12:44Z</time>
      </trkpt>
      <trkpt lat="47.24305" lon="-1.55145">
        <ele>13</ele>
        <time>2021-11-27T23:13:11Z</time>
      </trkpt>
      <trkpt lat="47.24303" lon="-1.55116">
        <ele>13</ele>
        <time>2021-11-27T23:13:37Z</time>
      </trkpt>
      <trkpt lat="47.24304" lon="-1.55079">
        <ele>13</ele>
        <time>2021-11-27T23:14:11Z</time>
      </trkpt>
      <trkpt lat="47.24311" lon="-1.54997">
        <ele>13</ele>
        <time>2021-11-27T23:15:26Z</time>
      </trkpt>
      <trkpt lat="47.24305" lon="-1.54951">
        <ele>13</ele>
        <time>2021-11-27T23:16:08Z</time>
      </trkpt>
      <trkpt lat="47.24284" lon="-1.54914">
        <ele>13</ele>
        <time>2021-11-27T23:16:52Z</time>
      </trkpt>
      <trkpt lat="47.24276" lon="-1.5489">
        <ele>13</ele>
        <time>2021-11-27T23:17:16Z</time>
      </trkpt>
      <trkpt lat="47.24269" lon="-1.54837">
        <ele>12</ele>
        <time>2021-11-27T23:18:05Z</time>
      </trkpt>
      <trkpt lat="47.24273" lon="-1.5482">
        <ele>12</ele>
        <time>2021-11-27T23:18:21Z</time>
      </trkpt>
      <trkpt lat="47.24277" lon="-1.54814">
        <ele>12</ele>
        <time>2021-11-27T23:18:29Z</time>
      </trkpt>
      <trkpt lat="47.24327" lon="-1.5479">
        <ele>14</ele>
        <time>2021-11-27T23:19:39Z</time>
      </trkpt>
      <trkpt lat="47.24341" lon="-1.54765">
        <ele>15</ele>
        <time>2021-11-27T23:20:08Z</time>
      </trkpt>
      <trkpt lat="47.24357" lon="-1.54745">
        <ele>16</ele>
        <time>2021-11-27T23:20:36Z</time>
      </trkpt>
      <trkpt lat="47.24409" lon="-1.54707">
        <ele>18</ele>
        <time>2021-11-27T23:21:54Z</time>
      </trkpt>
      <trkpt lat="47.24465" lon="-1.54673">
        <ele>15</ele>
        <time>2021-11-27T23:23:15Z</time>
      </trkpt>
      <trkpt lat="47.24482" lon="-1.54657">
        <ele>13</ele>
        <time>2021-11-27T23:23:42Z</time>
      </trkpt>
      <trkpt lat="47.24507" lon="-1.54643">
        <ele>12</ele>
        <time>2021-11-27T23:24:17Z</time>
      </trkpt>
      <trkpt lat="47.2453" lon="-1.54635">
        <ele>12</ele>
        <time>2021-11-27T23:24:49Z</time>
      </trkpt>
      <trkpt lat="47.24546" lon="-1.54625">
        <ele>11</ele>
        <time>2021-11-27T23:25:12Z</time>
      </trkpt>
      <trkpt lat="47.24569" lon="-1.54616">
        <ele>11</ele>
        <time>2021-11-27T23:25:44Z</time>
      </trkpt>
      <trkpt lat="47.24571" lon="-1.54612">
        <ele>11</ele>
        <time>2021-11-27T23:25:48Z</time>
      </trkpt>
      <trkpt lat="47.24585" lon="-1.54609">
        <ele>11</ele>
        <time>2021-11-27T23:26:07Z</time>
      </trkpt>
      <trkpt lat="47.24605" lon="-1.54611">
        <ele>11</ele>
        <time>2021-11-27T23:26:34Z</time>
      </trkpt>
      <trkpt lat="47.24615" lon="-1.54605">
        <ele>11</ele>
        <time>2021-11-27T23:26:48Z</time>
      </trkpt>
      <trkpt lat="47.2464" lon="-1.54598">
        <ele>10</ele>
        <time>2021-11-27T23:27:22Z</time>
      </trkpt>
      <trkpt lat="47.24667" lon="-1.54577">
        <ele>9</ele>
        <time>2021-11-27T23:28:03Z</time>
      </trkpt>
      <trkpt lat="47.24682" lon="-1.54572">
        <ele>9</ele>
        <time>2021-11-27T23:28:24Z</time>
      </trkpt>
      <trkpt lat="47.24695" lon="-1.54571">
        <ele>9</ele>
        <time>2021-11-27T23:28:41Z</time>
      </trkpt>
      <trkpt lat="47.24719" lon="-1.54554">
        <ele>9</ele>
        <time>2021-11-27T23:29:17Z</time>
      </trkpt>
      <trkpt lat="47.24731" lon="-1.54541">
        <ele>9</ele>
        <time>2021-11-27T23:29:36Z</time>
      </trkpt>
      <trkpt lat="47.24738" lon="-1.54539">
        <ele>9</ele>
        <time>2021-11-27T23:29:46Z</time>
      </trkpt>
      <trkpt lat="47.2477" lon="-1.54504">
        <ele>10</ele>
        <time>2021-11-27T23:30:39Z</time>
      </trkpt>
      <trkpt lat="47.24775" lon="-1.54502">
        <ele>10</ele>
        <time>2021-11-27T23:30:46Z</time>
      </trkpt>
      <trkpt lat="47.24778" lon="-1.54496">
        <ele>10</ele>
        <time>2021-11-27T23:30:53Z</time>
      </trkpt>
      <trkpt lat="47.24778" lon="-1.54489">
        <ele>10</ele>
        <time>2021-11-27T23:30:59Z</time>
      </trkpt>
      <trkpt lat="47.24789" lon="-1.54476">
        <ele>11</ele>
        <time>2021-11-27T23:31:18Z</time>
      </trkpt>
      <trkpt lat="47.248" lon="-1.5447">
        <ele>11</ele>
        <time>2021-11-27T23:31:34Z</time>
      </trkpt>
      <trkpt lat="47.24817" lon="-1.54452">
        <ele>12</ele>
        <time>2021-11-27T23:32:02Z</time>
      </trkpt>
      <trkpt lat="47.24835" lon="-1.54424">
        <ele>12</ele>
        <time>2021-11-27T23:32:36Z</time>
      </trkpt>
      <trkpt lat="47.24851" lon="-1.54413">
        <ele>12</ele>
        <time>2021-11-27T23:33:00Z</time>
      </trkpt>
      <trkpt lat="47.24861" lon="-1.54398">
        <ele>12</ele>
        <time>2021-11-27T23:33:19Z</time>
      </trkpt>
      <trkpt lat="47.24877" lon="-1.54385">
        <ele>12</ele>
        <time>2021-11-27T23:33:43Z</time>
      </trkpt>
      <trkpt lat="47.24909" lon="-1.54342">
        <ele>13</ele>
        <time>2021-11-27T23:34:41Z</time>
      </trkpt>
      <trkpt lat="47.24936" lon="-1.54317">
        <ele>12</ele>
        <time>2021-11-27T23:35:24Z</time>
      </trkpt>
      <trkpt lat="47.24953" lon="-1.54309">
        <ele>12</ele>
        <time>2021-11-27T23:35:48Z</time>
      </trkpt>
      <trkpt lat="47.24969" lon="-1.5427">
        <ele>10</ele>
        <time>2021-11-27T23:36:29Z</time>
      </trkpt>
      <trkpt lat="47.25" lon="-1.54231">
        <ele>9</ele>
        <time>2021-11-27T23:37:23Z</time>
      </trkpt>
      <trkpt lat="47.25033" lon="-1.54198">
        <ele>9</ele>
        <time>2021-11-27T23:38:17Z</time>
      </trkpt>
      <trkpt lat="47.25068" lon="-1.54151">
        <ele>8</ele>
        <time>2021-11-27T23:39:20Z</time>
      </trkpt>
      <trkpt lat="47.25091" lon="-1.5413">
        <ele>7</ele>
        <time>2021-11-27T23:39:56Z</time>
      </trkpt>
      <trkpt lat="47.2513" lon="-1.54105">
        <ele>5</ele>
        <time>2021-11-27T23:40:53Z</time>
      </trkpt>
      <trkpt lat="47.25138" lon="-1.54092">
        <ele>4</ele>
        <time>2021-11-27T23:41:08Z</time>
      </trkpt>
      <trkpt lat="47.25153" lon="-1.54078">
        <ele>4</ele>
        <time>2021-11-27T23:41:32Z</time>
      </trkpt>
      <trkpt lat="47.25185" lon="-1.54062">
        <ele>4</ele>
        <time>2021-11-27T23:42:17Z</time>
      </trkpt>
      <trkpt lat="47.25204" lon="-1.54056">
        <ele>5</ele>
        <time>2021-11-27T23:42:43Z</time>
      </trkpt>
      <trkpt lat="47.25226" lon="-1.54054">
        <ele>5</ele>
        <time>2021-11-27T23:43:13Z</time>
      </trkpt>
      <trkpt lat="47.25245" lon="-1.54047">
        <ele>5</ele>
        <time>2021-11-27T23:43:39Z</time>
      </trkpt>
      <trkpt lat="47.25283" lon="-1.54045">
        <ele>6</ele>
        <time>2021-11-27T23:44:30Z</time>
      </trkpt>
      <trkpt lat="47.25299" lon="-1.54038">
        <ele>6</ele>
        <time>2021-11-27T23:44:52Z</time>
      </trkpt>
      <trkpt lat="47.25323" lon="-1.54034">
        <ele>7</ele>
        <time>2021-11-27T23:45:24Z</time>
      </trkpt>
      <trkpt lat="47.25333" lon="-1.54037">
        <ele>7</ele>
        <time>2021-11-27T23:45:38Z</time>
      </trkpt>
      <trkpt lat="47.25358" lon="-1.54028">
        <ele>7</ele>
        <time>2021-11-27T23:46:12Z</time>
      </trkpt>
      <trkpt lat="47.25419" lon="-1.54017">
        <ele>6</ele>
        <time>2021-11-27T23:47:34Z</time>
      </trkpt>
      <trkpt lat="47.25444" lon="-1.54009">
        <ele>7</ele>
        <time>2021-11-27T23:48:08Z</time>
      </trkpt>
      <trkpt lat="47.25475" lon="-1.54009">
        <ele>9</ele>
        <time>2021-11-27T23:48:49Z</time>
      </trkpt>
      <trkpt lat="47.25489" lon="-1.54005">
        <ele>9</ele>
        <time>2021-11-27T23:49:09Z</time>
      </trkpt>
      <trkpt lat="47.25505" lon="-1.54008">
        <ele>10</ele>
        <time>2021-11-27T23:49:30Z</time>
      </trkpt>
      <trkpt lat="47.25518" lon="-1.54002">
        <ele>10</ele>
        <time>2021-11-27T23:49:48Z</time>
      </trkpt>
      <trkpt lat="47.25526" lon="-1.53993">
        <ele>10</ele>
        <time>2021-11-27T23:50:02Z</time>
      </trkpt>
      <trkpt lat="47.2555" lon="-1.53985">
        <ele>10</ele>
        <time>2021-11-27T23:50:34Z</time>
      </trkpt>
      <trkpt lat="47.25565" lon="-1.53977">
        <ele>10</ele>
        <time>2021-11-27T23:50:56Z</time>
      </trkpt>
      <trkpt lat="47.25593" lon="-1.53949">
        <ele>8</ele>
        <time>2021-11-27T23:51:41Z</time>
      </trkpt>
      <trkpt lat="47.25606" lon="-1.53952">
        <ele>9</ele>
        <time>2021-11-27T23:51:58Z</time>
      </trkpt>
      <trkpt lat="47.25612" lon="-1.53943">
        <ele>8</ele>
        <time>2021-11-27T23:52:10Z</time>
      </trkpt>
      <trkpt lat="47.25624" lon="-1.53934">
        <ele>8</ele>
        <time>2021-11-27T23:52:28Z</time>
      </trkpt>
      <trkpt lat="47.25636" lon="-1.53936">
        <ele>8</ele>
        <time>2021-11-27T23:52:44Z</time>
      </trkpt>
      <trkpt lat="47.25665" lon="-1.53933">
        <ele>8</ele>
        <time>2021-11-27T23:53:23Z</time>
      </trkpt>
      <trkpt lat="47.25677" lon="-1.53925">
        <ele>8</ele>
        <time>2021-11-27T23:53:40Z</time>
      </trkpt>
      <trkpt lat="47.25711" lon="-1.53916">
        <ele>7</ele>
        <time>2021-11-27T23:54:26Z</time>
      </trkpt>
      <trkpt lat="47.25724" lon="-1.53924">
        <ele>7</ele>
        <time>2021-11-27T23:54:45Z</time>
      </trkpt>
      <trkpt lat="47.25742" lon="-1.53949">
        <ele>9</ele>
        <time>2021-11-27T23:55:18Z</time>
      </trkpt>
      <trkpt lat="47.25761" lon="-1.53964">
        <ele>10</ele>
        <time>2021-11-27T23:55:47Z</time>
      </trkpt>
      <trkpt lat="47.25771" lon="-1.53967">
        <ele>10</ele>
        <time>2021-11-27T23:56:01Z</time>
      </trkpt>
      <trkpt lat="47.25823" lon="-1.53945">
        <ele>9</ele>
        <time>2021-11-27T23:57:13Z</time>
      </trkpt>
      <trkpt lat="47.25843" lon="-1.53942">
        <ele>9</ele>
        <time>2021-11-27T23:57:40Z</time>
      </trkpt>
      <trkpt lat="47.25896" lon="-1.53904">
        <ele>8</ele>
        <time>2021-11-27T23:58:58Z</time>
      </trkpt>
      <trkpt lat="47.25924" lon="-1.53889">
        <ele>8</ele>
        <time>2021-11-27T23:59:38Z</time>
      </trkpt>
      <trkpt lat="47.25938" lon="-1.53885">
        <ele>8</ele>
        <time>2021-11-27T23:59:57Z</time>
      </trkpt>
      <trkpt lat="47.25952" lon="-1.53871">
        <ele>7</ele>
        <time>2021-11-28T00:00:20Z</time>
      </trkpt>
      <trkpt lat="47.2598" lon="-1.53851">
        <ele>6</ele>
        <time>2021-11-28T00:01:01Z</time>
      </trkpt>
      <trkpt lat="47.25991" lon="-1.5385">
        <ele>6</ele>
        <time>2021-11-28T00:01:16Z</time>
      </trkpt>
      <trkpt lat="47.26022" lon="-1.53841">
        <ele>6</ele>
        <time>2021-11-28T00:01:58Z</time>
      </trkpt>
      <trkpt lat="47.2609" lon="-1.53847">
        <ele>7</ele>
        <time>2021-11-28T00:03:29Z</time>
      </trkpt>
      <trkpt lat="47.26122" lon="-1.53836">
        <ele>7</ele>
        <time>2021-11-28T00:04:13Z</time>
      </trkpt>
      <trkpt lat="47.26151" lon="-1.53838">
        <ele>9</ele>
        <time>2021-11-28T00:04:52Z</time>
      </trkpt>
      <trkpt lat="47.26191" lon="-1.53854">
        <ele>11</ele>
        <time>2021-11-28T00:05:47Z</time>
      </trkpt>
      <trkpt lat="47.26217" lon="-1.53871">
        <ele>11</ele>
        <time>2021-11-28T00:06:25Z</time>
      </trkpt>
      <trkpt lat="47.26257" lon="-1.53914">
        <ele>12</ele>
        <time>2021-11-28T00:07:31Z</time>
      </trkpt>
      <trkpt lat="47.26271" lon="-1.53921">
        <ele>11</ele>
        <time>2021-11-28T00:07:51Z</time>
      </trkpt>
      <trkpt lat="47.26283" lon="-1.53932">
        <ele>11</ele>
        <time>2021-11-28T00:08:10Z</time>
      </trkpt>
      <trkpt lat="47.26291" lon="-1.53936">
        <ele>10</ele>
        <time>2021-11-28T00:08:21Z</time>
      </trkpt>
      <trkpt lat="47.26309" lon="-1.53954">
        <ele>9</ele>
        <time>2021-11-28T00:08:50Z</time>
      </trkpt>
      <trkpt lat="47.26339" lon="-1.53976">
        <ele>8</ele>
        <time>2021-11-28T00:09:35Z</time>
      </trkpt>
      <trkpt lat="47.26352" lon="-1.5398">
        <ele>8</ele>
        <time>2021-11-28T00:09:52Z</time>
      </trkpt>
      <trkpt lat="47.26368" lon="-1.53989">
        <ele>7</ele>
        <time>2021-11-28T00:10:15Z</time>
      </trkpt>
      <trkpt lat="47.26386" lon="-1.53991">
        <ele>7</ele>
        <time>2021-11-28T00:10:39Z</time>
      </trkpt>
      <trkpt lat="47.26399" lon="-1.53996">
        <ele>6</ele>
        <time>2021-11-28T00:10:57Z</time>
      </trkpt>
      <trkpt lat="47.26417" lon="-1.53998">
        <ele>6</ele>
        <time>2021-11-28T00:11:21Z</time>
      </trkpt>
      <trkpt lat="47.2642" lon="-1.53996">
        <ele>6</ele>
        <time>2021-11-28T00:11:26Z</time>
      </trkpt>
      <trkpt lat="47.26437" lon="-1.54003">
        <ele>6</ele>
        <time>2021-11-28T00:11:49Z</time>
      </trkpt>
      <trkpt lat="47.26453" lon="-1.54004">
        <ele>6</ele>
        <time>2021-11-28T00:12:11Z</time>
      </trkpt>
      <trkpt lat="47.26478" lon="-1.53996">
        <ele>6</ele>
        <time>2021-11-28T00:12:45Z</time>
      </trkpt>
      <trkpt lat="47.26485" lon="-1.53996">
        <ele>6</ele>
        <time>2021-11-28T00:12:54Z</time>
      </trkpt>
      <trkpt lat="47.2649" lon="-1.53999">
        <ele>6</ele>
        <time>2021-11-28T00:13:01Z</time>
      </trkpt>
      <trkpt lat="47.26499" lon="-1.54016">
        <ele>7</ele>
        <time>2021-11-28T00:13:21Z</time>
      </trkpt>
      <trkpt lat="47.26502" lon="-1.54029">
        <ele>8</ele>
        <time>2021-11-28T00:13:33Z</time>
      </trkpt>
      <trkpt lat="47.2651" lon="-1.54042">
        <ele>9</ele>
        <time>2021-11-28T00:13:49Z</time>
      </trkpt>
      <trkpt lat="47.26513" lon="-1.54053">
        <ele>9</ele>
        <time>2021-11-28T00:14:00Z</time>
      </trkpt>
      <trkpt lat="47.26522" lon="-1.54065">
        <ele>11</ele>
        <time>2021-11-28T00:14:16Z</time>
      </trkpt>
      <trkpt lat="47.26546" lon="-1.54115">
        <ele>14</ele>
        <time>2021-11-28T00:15:11Z</time>
      </trkpt>
      <trkpt lat="47.26561" lon="-1.54139">
        <ele>15</ele>
        <time>2021-11-28T00:15:41Z</time>
      </trkpt>
      <trkpt lat="47.26574" lon="-1.54169">
        <ele>16</ele>
        <time>2021-11-28T00:16:13Z</time>
      </trkpt>
      <trkpt lat="47.26589" lon="-1.54214">
        <ele>17</ele>
        <time>2021-11-28T00:16:59Z</time>
      </trkpt>
      <trkpt lat="47.26601" lon="-1.54237">
        <ele>18</ele>
        <time>2021-11-28T00:17:25Z</time>
      </trkpt>
      <trkpt lat="47.26604" lon="-1.54248">
        <ele>18</ele>
        <time>2021-11-28T00:17:36Z</time>
      </trkpt>
      <trkpt lat="47.26614" lon="-1.54261">
        <ele>19</ele>
        <time>2021-11-28T00:17:53Z</time>
      </trkpt>
      <trkpt lat="47.2662" lon="-1.54274">
        <ele>19</ele>
        <time>2021-11-28T00:18:08Z</time>
      </trkpt>
      <trkpt lat="47.2663" lon="-1.54311">
        <ele>21</ele>
        <time>2021-11-28T00:18:44Z</time>
      </trkpt>
      <trkpt lat="47.26637" lon="-1.54354">
        <ele>21</ele>
        <time>2021-11-28T00:19:24Z</time>
      </trkpt>
      <trkpt lat="47.26634" lon="-1.54368">
        <ele>22</ele>
        <time>2021-11-28T00:19:37Z</time>
      </trkpt>
      <trkpt lat="47.26624" lon="-1.54379">
        <ele>22</ele>
        <time>2021-11-28T00:19:54Z</time>
      </trkpt>
      <trkpt lat="47.26592" lon="-1.54384">
        <ele>22</ele>
        <time>2021-11-28T00:20:37Z</time>
      </trkpt>
      <trkpt lat="47.26584" lon="-1.54392">
        <ele>22</ele>
        <time>2021-11-28T00:20:50Z</time>
      </trkpt>
      <trkpt lat="47.2658" lon="-1.54402">
        <ele>22</ele>
        <time>2021-11-28T00:21:00Z</time>
      </trkpt>
      <trkpt lat="47.26587" lon="-1.5444">
        <ele>22</ele>
        <time>2021-11-28T00:21:36Z</time>
      </trkpt>
      <trkpt lat="47.26598" lon="-1.5446">
        <ele>23</ele>
        <time>2021-11-28T00:21:59Z</time>
      </trkpt>
      <trkpt lat="47.26607" lon="-1.54467">
        <ele>23</ele>
        <time>2021-11-28T00:22:13Z</time>
      </trkpt>
      <trkpt lat="47.2663" lon="-1.54465">
        <ele>23</ele>
        <time>2021-11-28T00:22:43Z</time>
      </trkpt>
      <trkpt lat="47.26658" lon="-1.54458">
        <ele>24</ele>
        <time>2021-11-28T00:23:21Z</time>
      </trkpt>
      <trkpt lat="47.26684" lon="-1.54458">
        <ele>25</ele>
        <time>2021-11-28T00:23:56Z</time>
      </trkpt>
      <trkpt lat="47.26737" lon="-1.54475">
        <ele>27</ele>
        <time>2021-11-28T00:25:08Z</time>
      </trkpt>
      <trkpt lat="47.26749" lon="-1.54486">
        <ele>28</ele>
        <time>2021-11-28T00:25:27Z</time>
      </trkpt>
      <trkpt lat="47.26758" lon="-1.54504">
        <ele>28</ele>
        <time>2021-11-28T00:25:48Z</time>
      </trkpt>
      <trkpt lat="47.26779" lon="-1.54513">
        <ele>28</ele>
        <time>2021-11-28T00:26:17Z</time>
      </trkpt>
      <trkpt lat="47.26822" lon="-1.54554">
        <ele>28</ele>
        <time>2021-11-28T00:27:25Z</time>
      </trkpt>
      <trkpt lat="47.26843" lon="-1.54564">
        <ele>29</ele>
        <time>2021-11-28T00:27:54Z</time>
      </trkpt>
      <trkpt lat="47.26867" lon="-1.5457">
        <ele>30</ele>
        <time>2021-11-28T00:28:27Z</time>
      </trkpt>
      <trkpt lat="47.26878" lon="-1.54579">
        <ele>30</ele>
        <time>2021-11-28T00:28:44Z</time>
      </trkpt>
      <trkpt lat="47.26878" lon="-1.54593">
        <ele>31</ele>
        <time>2021-11-28T00:28:56Z</time>
      </trkpt>
      <trkpt lat="47.26874" lon="-1.5461">
        <ele>31</ele>
        <time>2021-11-28T00:29:13Z</time>
      </trkpt>
      <trkpt lat="47.26865" lon="-1.54629">
        <ele>30</ele>
        <time>2021-11-28T00:29:34Z</time>
      </trkpt>
      <trkpt lat="47.26865" lon="-1.54652">
        <ele>30</ele>
        <time>2021-11-28T00:29:55Z</time>
      </trkpt>
      <trkpt lat="47.26873" lon="-1.54671">
        <ele>31</ele>
        <time>2021-11-28T00:30:15Z</time>
      </trkpt>
      <trkpt lat="47.26891" lon="-1.54763">
        <ele>29</ele>
        <time>2021-11-28T00:31:41Z</time>
      </trkpt>
      <trkpt lat="47.26911" lon="-1.54839">
        <ele>27</ele>
        <time>2021-11-28T00:32:55Z</time>
      </trkpt>
      <trkpt lat="47.26923" lon="-1.54896">
        <ele>26</ele>
        <time>2021-11-28T00:33:49Z</time>
      </trkpt>
      <trkpt lat="47.26933" lon="-1.54924">
        <ele>26</ele>
        <time>2021-11-28T00:34:18Z</time>
      </trkpt>
      <trkpt lat="47.26919" lon="-1.54983">
        <ele>24</ele>
        <time>2021-11-28T00:35:15Z</time>
      </trkpt>
      <trkpt lat="47.26923" lon="-1.55002">
        <ele>24</ele>
        <time>2021-11-28T00:35:33Z</time>
      </trkpt>
      <trkpt lat="47.26926" lon="-1.5504">
        <ele>25</ele>
        <time>2021-11-28T00:36:07Z</time>
      </trkpt>
      <trkpt lat="47.2694" lon="-1.55089">
        <ele>26</ele>
        <time>2021-11-28T00:36:55Z</time>
      </trkpt>
      <trkpt lat="47.26951" lon="-1.55154">
        <ele>27</ele>
        <time>2021-11-28T00:37:56Z</time>
      </trkpt>
      <trkpt lat="47.26957" lon="-1.55169">
        <ele>27</ele>
        <time>2021-11-28T00:38:12Z</time>
      </trkpt>
      <trkpt lat="47.26964" lon="-1.55202">
        <ele>28</ele>
        <time>2021-11-28T00:38:43Z</time>
      </trkpt>
      <trkpt lat="47.26974" lon="-1.55212">
        <ele>29</ele>
        <time>2021-11-28T00:38:59Z</time>
      </trkpt>
      <trkpt lat="47.26986" lon="-1.55208">
        <ele>29</ele>
        <time>2021-11-28T00:39:16Z</time>
      </trkpt>
      <trkpt lat="47.26999" lon="-1.55212">
        <ele>30</ele>
        <time>2021-11-28T00:39:33Z</time>
      </trkpt>
    </trkseg>
  </trk>
</gpx>